<?xml version="1.0" encoding="UTF-8" standalone="no" ?>
<gpx xmlns="http://www.topografix.com/GPX/1/1" xmlns:xsi="http://www.w3.org/2001/XMLSchema-instance" xsi:schemaLocation="http://www.topografix.com/GPX/1/1 http://www.topografix.com/GPX/1/1/gpx.xsd" version="1.1" creator="VisuGPX - https://www.visugpx.com">
  <metadata>
    <name>83-D-Plan d'Anelle</name>
    <desc><![CDATA[83-D-Plan d'Anelle : boucle de Brenon]]></desc>
  </metadata>
  <trk>
    <name><![CDATA[2017-10-29-D-plan anelle]]></name>
    <trkseg>
      <trkpt lat="43.76117" lon="6.55876">
        <ele>956.9</ele>
        <time>2017-10-29T08:32:21Z</time>
      </trkpt>
      <trkpt lat="43.76116" lon="6.55875">
        <ele>956.9</ele>
        <time>2017-10-29T08:32:22Z</time>
      </trkpt>
      <trkpt lat="43.76107" lon="6.55872">
        <ele>956.5</ele>
        <time>2017-10-29T08:32:28Z</time>
      </trkpt>
      <trkpt lat="43.76099" lon="6.55865">
        <ele>956.2</ele>
        <time>2017-10-29T08:32:38Z</time>
      </trkpt>
      <trkpt lat="43.7609" lon="6.55857">
        <ele>956.3</ele>
        <time>2017-10-29T08:32:48Z</time>
      </trkpt>
      <trkpt lat="43.76087" lon="6.55845">
        <ele>956.7</ele>
        <time>2017-10-29T08:33:01Z</time>
      </trkpt>
      <trkpt lat="43.76079" lon="6.55836">
        <ele>957.2</ele>
        <time>2017-10-29T08:33:10Z</time>
      </trkpt>
      <trkpt lat="43.76072" lon="6.55827">
        <ele>957.7</ele>
        <time>2017-10-29T08:33:19Z</time>
      </trkpt>
      <trkpt lat="43.76064" lon="6.55819">
        <ele>958.7</ele>
        <time>2017-10-29T08:33:29Z</time>
      </trkpt>
      <trkpt lat="43.76056" lon="6.55812">
        <ele>960.3</ele>
        <time>2017-10-29T08:33:42Z</time>
      </trkpt>
      <trkpt lat="43.76049" lon="6.55804">
        <ele>961</ele>
        <time>2017-10-29T08:33:52Z</time>
      </trkpt>
      <trkpt lat="43.76041" lon="6.55796">
        <ele>961.4</ele>
        <time>2017-10-29T08:33:59Z</time>
      </trkpt>
      <trkpt lat="43.76033" lon="6.55789">
        <ele>961.8</ele>
        <time>2017-10-29T08:34:06Z</time>
      </trkpt>
      <trkpt lat="43.76025" lon="6.55782">
        <ele>962.4</ele>
        <time>2017-10-29T08:34:15Z</time>
      </trkpt>
      <trkpt lat="43.76017" lon="6.55775">
        <ele>962.5</ele>
        <time>2017-10-29T08:34:22Z</time>
      </trkpt>
      <trkpt lat="43.76009" lon="6.55768">
        <ele>962.7</ele>
        <time>2017-10-29T08:34:31Z</time>
      </trkpt>
      <trkpt lat="43.76" lon="6.55775">
        <ele>963</ele>
        <time>2017-10-29T08:34:40Z</time>
      </trkpt>
      <trkpt lat="43.75996" lon="6.55787">
        <ele>963.2</ele>
        <time>2017-10-29T08:34:51Z</time>
      </trkpt>
      <trkpt lat="43.75992" lon="6.55798">
        <ele>963.3</ele>
        <time>2017-10-29T08:34:58Z</time>
      </trkpt>
      <trkpt lat="43.75988" lon="6.5581">
        <ele>963.2</ele>
        <time>2017-10-29T08:35:05Z</time>
      </trkpt>
      <trkpt lat="43.75983" lon="6.5582">
        <ele>962.7</ele>
        <time>2017-10-29T08:35:13Z</time>
      </trkpt>
      <trkpt lat="43.75975" lon="6.55826">
        <ele>962.6</ele>
        <time>2017-10-29T08:35:22Z</time>
      </trkpt>
      <trkpt lat="43.75972" lon="6.55839">
        <ele>963.4</ele>
        <time>2017-10-29T08:35:34Z</time>
      </trkpt>
      <trkpt lat="43.75966" lon="6.55829">
        <ele>965</ele>
        <time>2017-10-29T08:35:48Z</time>
      </trkpt>
      <trkpt lat="43.75964" lon="6.55817">
        <ele>966.4</ele>
        <time>2017-10-29T08:35:58Z</time>
      </trkpt>
      <trkpt lat="43.75959" lon="6.55806">
        <ele>967.4</ele>
        <time>2017-10-29T08:36:07Z</time>
      </trkpt>
      <trkpt lat="43.75955" lon="6.55794">
        <ele>970.9</ele>
        <time>2017-10-29T08:36:41Z</time>
      </trkpt>
      <trkpt lat="43.7595" lon="6.55783">
        <ele>972.4</ele>
        <time>2017-10-29T08:36:55Z</time>
      </trkpt>
      <trkpt lat="43.75946" lon="6.55772">
        <ele>973.8</ele>
        <time>2017-10-29T08:37:04Z</time>
      </trkpt>
      <trkpt lat="43.7594" lon="6.55761">
        <ele>974.6</ele>
        <time>2017-10-29T08:37:12Z</time>
      </trkpt>
      <trkpt lat="43.75938" lon="6.55748">
        <ele>975.5</ele>
        <time>2017-10-29T08:37:24Z</time>
      </trkpt>
      <trkpt lat="43.75936" lon="6.55736">
        <ele>976.5</ele>
        <time>2017-10-29T08:37:36Z</time>
      </trkpt>
      <trkpt lat="43.7594" lon="6.55723">
        <ele>977.9</ele>
        <time>2017-10-29T08:37:46Z</time>
      </trkpt>
      <trkpt lat="43.75939" lon="6.5571">
        <ele>979.7</ele>
        <time>2017-10-29T08:37:57Z</time>
      </trkpt>
      <trkpt lat="43.75939" lon="6.55698">
        <ele>982.4</ele>
        <time>2017-10-29T08:38:18Z</time>
      </trkpt>
      <trkpt lat="43.75939" lon="6.55685">
        <ele>984.4</ele>
        <time>2017-10-29T08:38:45Z</time>
      </trkpt>
      <trkpt lat="43.75938" lon="6.55672">
        <ele>985.6</ele>
        <time>2017-10-29T08:38:55Z</time>
      </trkpt>
      <trkpt lat="43.75934" lon="6.5566">
        <ele>986.2</ele>
        <time>2017-10-29T08:39:03Z</time>
      </trkpt>
      <trkpt lat="43.7593" lon="6.55647">
        <ele>987.5</ele>
        <time>2017-10-29T08:39:12Z</time>
      </trkpt>
      <trkpt lat="43.75927" lon="6.55635">
        <ele>988.9</ele>
        <time>2017-10-29T08:39:23Z</time>
      </trkpt>
      <trkpt lat="43.75924" lon="6.55623">
        <ele>991.1</ele>
        <time>2017-10-29T08:39:37Z</time>
      </trkpt>
      <trkpt lat="43.75922" lon="6.55611">
        <ele>994.2</ele>
        <time>2017-10-29T08:40:13Z</time>
      </trkpt>
      <trkpt lat="43.75925" lon="6.55598">
        <ele>995.8</ele>
        <time>2017-10-29T08:40:25Z</time>
      </trkpt>
      <trkpt lat="43.75922" lon="6.55586">
        <ele>997.2</ele>
        <time>2017-10-29T08:40:34Z</time>
      </trkpt>
      <trkpt lat="43.75919" lon="6.55574">
        <ele>998.9</ele>
        <time>2017-10-29T08:40:44Z</time>
      </trkpt>
      <trkpt lat="43.75914" lon="6.55561">
        <ele>1001.1</ele>
        <time>2017-10-29T08:40:55Z</time>
      </trkpt>
      <trkpt lat="43.75911" lon="6.55549">
        <ele>1003.2</ele>
        <time>2017-10-29T08:41:06Z</time>
      </trkpt>
      <trkpt lat="43.75905" lon="6.55539">
        <ele>1005.6</ele>
        <time>2017-10-29T08:41:22Z</time>
      </trkpt>
      <trkpt lat="43.75903" lon="6.55526">
        <ele>1007.4</ele>
        <time>2017-10-29T08:41:34Z</time>
      </trkpt>
      <trkpt lat="43.75894" lon="6.55525">
        <ele>1010.9</ele>
        <time>2017-10-29T08:42:04Z</time>
      </trkpt>
      <trkpt lat="43.75892" lon="6.55513">
        <ele>1013.5</ele>
        <time>2017-10-29T08:46:02Z</time>
      </trkpt>
      <trkpt lat="43.75891" lon="6.55499">
        <ele>1014.8</ele>
        <time>2017-10-29T08:46:20Z</time>
      </trkpt>
      <trkpt lat="43.7589" lon="6.55487">
        <ele>1016</ele>
        <time>2017-10-29T08:46:33Z</time>
      </trkpt>
      <trkpt lat="43.75896" lon="6.55475">
        <ele>1018.1</ele>
        <time>2017-10-29T08:46:50Z</time>
      </trkpt>
      <trkpt lat="43.75894" lon="6.55463">
        <ele>1019.4</ele>
        <time>2017-10-29T08:47:00Z</time>
      </trkpt>
      <trkpt lat="43.75891" lon="6.5545">
        <ele>1020.2</ele>
        <time>2017-10-29T08:47:11Z</time>
      </trkpt>
      <trkpt lat="43.7589" lon="6.55437">
        <ele>1020.8</ele>
        <time>2017-10-29T08:47:22Z</time>
      </trkpt>
      <trkpt lat="43.75893" lon="6.55425">
        <ele>1021.3</ele>
        <time>2017-10-29T08:47:33Z</time>
      </trkpt>
      <trkpt lat="43.75895" lon="6.55412">
        <ele>1021.8</ele>
        <time>2017-10-29T08:47:43Z</time>
      </trkpt>
      <trkpt lat="43.75897" lon="6.55399">
        <ele>1022.4</ele>
        <time>2017-10-29T08:47:54Z</time>
      </trkpt>
      <trkpt lat="43.75897" lon="6.55386">
        <ele>1023.4</ele>
        <time>2017-10-29T08:48:06Z</time>
      </trkpt>
      <trkpt lat="43.75899" lon="6.55373">
        <ele>1024.2</ele>
        <time>2017-10-29T08:48:17Z</time>
      </trkpt>
      <trkpt lat="43.75901" lon="6.5536">
        <ele>1025.2</ele>
        <time>2017-10-29T08:48:25Z</time>
      </trkpt>
      <trkpt lat="43.75903" lon="6.55347">
        <ele>1025.9</ele>
        <time>2017-10-29T08:48:35Z</time>
      </trkpt>
      <trkpt lat="43.75904" lon="6.55334">
        <ele>1027.1</ele>
        <time>2017-10-29T08:48:51Z</time>
      </trkpt>
      <trkpt lat="43.75905" lon="6.55322">
        <ele>1027.7</ele>
        <time>2017-10-29T08:49:13Z</time>
      </trkpt>
      <trkpt lat="43.75907" lon="6.55309">
        <ele>1028.5</ele>
        <time>2017-10-29T08:49:38Z</time>
      </trkpt>
      <trkpt lat="43.7591" lon="6.55296">
        <ele>1028.9</ele>
        <time>2017-10-29T08:49:53Z</time>
      </trkpt>
      <trkpt lat="43.75909" lon="6.55283">
        <ele>1029.3</ele>
        <time>2017-10-29T08:50:01Z</time>
      </trkpt>
      <trkpt lat="43.75908" lon="6.5527">
        <ele>1029.7</ele>
        <time>2017-10-29T08:50:09Z</time>
      </trkpt>
      <trkpt lat="43.75912" lon="6.55258">
        <ele>1030.3</ele>
        <time>2017-10-29T08:50:19Z</time>
      </trkpt>
      <trkpt lat="43.75912" lon="6.55244">
        <ele>1031.3</ele>
        <time>2017-10-29T08:50:29Z</time>
      </trkpt>
      <trkpt lat="43.75914" lon="6.55232">
        <ele>1032.5</ele>
        <time>2017-10-29T08:50:42Z</time>
      </trkpt>
      <trkpt lat="43.75912" lon="6.5522">
        <ele>1034</ele>
        <time>2017-10-29T08:50:53Z</time>
      </trkpt>
      <trkpt lat="43.75909" lon="6.55207">
        <ele>1035.6</ele>
        <time>2017-10-29T08:51:04Z</time>
      </trkpt>
      <trkpt lat="43.75907" lon="6.55194">
        <ele>1036.9</ele>
        <time>2017-10-29T08:51:15Z</time>
      </trkpt>
      <trkpt lat="43.7591" lon="6.55182">
        <ele>1038.5</ele>
        <time>2017-10-29T08:51:26Z</time>
      </trkpt>
      <trkpt lat="43.75911" lon="6.55169">
        <ele>1039.7</ele>
        <time>2017-10-29T08:51:35Z</time>
      </trkpt>
      <trkpt lat="43.75912" lon="6.55155">
        <ele>1040.7</ele>
        <time>2017-10-29T08:51:46Z</time>
      </trkpt>
      <trkpt lat="43.75911" lon="6.55143">
        <ele>1042.5</ele>
        <time>2017-10-29T08:51:59Z</time>
      </trkpt>
      <trkpt lat="43.7591" lon="6.5513">
        <ele>1044.7</ele>
        <time>2017-10-29T08:52:16Z</time>
      </trkpt>
      <trkpt lat="43.75905" lon="6.55119">
        <ele>1046.4</ele>
        <time>2017-10-29T08:52:27Z</time>
      </trkpt>
      <trkpt lat="43.75899" lon="6.55109">
        <ele>1047.9</ele>
        <time>2017-10-29T08:52:39Z</time>
      </trkpt>
      <trkpt lat="43.75897" lon="6.55096">
        <ele>1049.9</ele>
        <time>2017-10-29T08:52:54Z</time>
      </trkpt>
      <trkpt lat="43.75896" lon="6.55083">
        <ele>1052.1</ele>
        <time>2017-10-29T08:53:09Z</time>
      </trkpt>
      <trkpt lat="43.75893" lon="6.5507">
        <ele>1053.8</ele>
        <time>2017-10-29T08:53:20Z</time>
      </trkpt>
      <trkpt lat="43.75886" lon="6.55064">
        <ele>1055</ele>
        <time>2017-10-29T08:53:32Z</time>
      </trkpt>
      <trkpt lat="43.75878" lon="6.55056">
        <ele>1055.5</ele>
        <time>2017-10-29T08:53:44Z</time>
      </trkpt>
      <trkpt lat="43.7587" lon="6.55049">
        <ele>1056.4</ele>
        <time>2017-10-29T08:53:55Z</time>
      </trkpt>
      <trkpt lat="43.75862" lon="6.5504">
        <ele>1057</ele>
        <time>2017-10-29T08:54:05Z</time>
      </trkpt>
      <trkpt lat="43.75855" lon="6.55032">
        <ele>1058.4</ele>
        <time>2017-10-29T08:54:18Z</time>
      </trkpt>
      <trkpt lat="43.75845" lon="6.55029">
        <ele>1059.9</ele>
        <time>2017-10-29T08:54:29Z</time>
      </trkpt>
      <trkpt lat="43.75837" lon="6.55024">
        <ele>1062.2</ele>
        <time>2017-10-29T08:55:17Z</time>
      </trkpt>
      <trkpt lat="43.75833" lon="6.55012">
        <ele>1062.9</ele>
        <time>2017-10-29T08:55:30Z</time>
      </trkpt>
      <trkpt lat="43.7583" lon="6.54999">
        <ele>1064</ele>
        <time>2017-10-29T08:55:41Z</time>
      </trkpt>
      <trkpt lat="43.75824" lon="6.5499">
        <ele>1067.7</ele>
        <time>2017-10-29T08:56:15Z</time>
      </trkpt>
      <trkpt lat="43.7582" lon="6.54979">
        <ele>1069.9</ele>
        <time>2017-10-29T08:58:48Z</time>
      </trkpt>
      <trkpt lat="43.75827" lon="6.54987">
        <ele>1070.4</ele>
        <time>2017-10-29T08:59:06Z</time>
      </trkpt>
      <trkpt lat="43.75836" lon="6.54993">
        <ele>1070.5</ele>
        <time>2017-10-29T08:59:18Z</time>
      </trkpt>
      <trkpt lat="43.75845" lon="6.54995">
        <ele>1070.3</ele>
        <time>2017-10-29T08:59:28Z</time>
      </trkpt>
      <trkpt lat="43.75855" lon="6.54996">
        <ele>1070.3</ele>
        <time>2017-10-29T08:59:39Z</time>
      </trkpt>
      <trkpt lat="43.75864" lon="6.54996">
        <ele>1070.5</ele>
        <time>2017-10-29T08:59:51Z</time>
      </trkpt>
      <trkpt lat="43.75872" lon="6.55004">
        <ele>1070.2</ele>
        <time>2017-10-29T09:00:05Z</time>
      </trkpt>
      <trkpt lat="43.75879" lon="6.55011">
        <ele>1069.8</ele>
        <time>2017-10-29T09:00:13Z</time>
      </trkpt>
      <trkpt lat="43.75887" lon="6.5502">
        <ele>1069.5</ele>
        <time>2017-10-29T09:00:22Z</time>
      </trkpt>
      <trkpt lat="43.75896" lon="6.55025">
        <ele>1069.4</ele>
        <time>2017-10-29T09:00:36Z</time>
      </trkpt>
      <trkpt lat="43.75904" lon="6.5503">
        <ele>1070.6</ele>
        <time>2017-10-29T09:00:50Z</time>
      </trkpt>
      <trkpt lat="43.75914" lon="6.55029">
        <ele>1072</ele>
        <time>2017-10-29T09:01:05Z</time>
      </trkpt>
      <trkpt lat="43.75923" lon="6.55027">
        <ele>1074.1</ele>
        <time>2017-10-29T09:01:21Z</time>
      </trkpt>
      <trkpt lat="43.75932" lon="6.55024">
        <ele>1077.5</ele>
        <time>2017-10-29T09:01:41Z</time>
      </trkpt>
      <trkpt lat="43.75941" lon="6.55026">
        <ele>1079.7</ele>
        <time>2017-10-29T09:01:55Z</time>
      </trkpt>
      <trkpt lat="43.7595" lon="6.55027">
        <ele>1082.1</ele>
        <time>2017-10-29T09:02:13Z</time>
      </trkpt>
      <trkpt lat="43.75959" lon="6.55022">
        <ele>1083.8</ele>
        <time>2017-10-29T09:02:24Z</time>
      </trkpt>
      <trkpt lat="43.75967" lon="6.55015">
        <ele>1085</ele>
        <time>2017-10-29T09:02:33Z</time>
      </trkpt>
      <trkpt lat="43.75976" lon="6.55008">
        <ele>1085.7</ele>
        <time>2017-10-29T09:02:44Z</time>
      </trkpt>
      <trkpt lat="43.75984" lon="6.55004">
        <ele>1085.3</ele>
        <time>2017-10-29T09:02:53Z</time>
      </trkpt>
      <trkpt lat="43.75993" lon="6.54998">
        <ele>1084.7</ele>
        <time>2017-10-29T09:03:03Z</time>
      </trkpt>
      <trkpt lat="43.76002" lon="6.54996">
        <ele>1084.2</ele>
        <time>2017-10-29T09:03:15Z</time>
      </trkpt>
      <trkpt lat="43.76011" lon="6.54992">
        <ele>1083.8</ele>
        <time>2017-10-29T09:03:24Z</time>
      </trkpt>
      <trkpt lat="43.7602" lon="6.54989">
        <ele>1083.4</ele>
        <time>2017-10-29T09:03:32Z</time>
      </trkpt>
      <trkpt lat="43.7603" lon="6.54988">
        <ele>1082.9</ele>
        <time>2017-10-29T09:03:43Z</time>
      </trkpt>
      <trkpt lat="43.76038" lon="6.54984">
        <ele>1082.7</ele>
        <time>2017-10-29T09:03:51Z</time>
      </trkpt>
      <trkpt lat="43.76047" lon="6.5498">
        <ele>1082.5</ele>
        <time>2017-10-29T09:03:59Z</time>
      </trkpt>
      <trkpt lat="43.76057" lon="6.54976">
        <ele>1082.2</ele>
        <time>2017-10-29T09:04:07Z</time>
      </trkpt>
      <trkpt lat="43.76066" lon="6.54974">
        <ele>1081.9</ele>
        <time>2017-10-29T09:04:15Z</time>
      </trkpt>
      <trkpt lat="43.76076" lon="6.54971">
        <ele>1081.9</ele>
        <time>2017-10-29T09:04:25Z</time>
      </trkpt>
      <trkpt lat="43.76085" lon="6.54965">
        <ele>1081.4</ele>
        <time>2017-10-29T09:04:33Z</time>
      </trkpt>
      <trkpt lat="43.76093" lon="6.54959">
        <ele>1080.3</ele>
        <time>2017-10-29T09:04:41Z</time>
      </trkpt>
      <trkpt lat="43.76102" lon="6.54955">
        <ele>1079</ele>
        <time>2017-10-29T09:04:49Z</time>
      </trkpt>
      <trkpt lat="43.76111" lon="6.54954">
        <ele>1077.8</ele>
        <time>2017-10-29T09:04:58Z</time>
      </trkpt>
      <trkpt lat="43.76121" lon="6.54953">
        <ele>1076.6</ele>
        <time>2017-10-29T09:05:11Z</time>
      </trkpt>
      <trkpt lat="43.76131" lon="6.54949">
        <ele>1074.3</ele>
        <time>2017-10-29T09:05:25Z</time>
      </trkpt>
      <trkpt lat="43.7614" lon="6.54948">
        <ele>1071.9</ele>
        <time>2017-10-29T09:05:39Z</time>
      </trkpt>
      <trkpt lat="43.76149" lon="6.54948">
        <ele>1069.8</ele>
        <time>2017-10-29T09:05:50Z</time>
      </trkpt>
      <trkpt lat="43.76158" lon="6.54947">
        <ele>1068.3</ele>
        <time>2017-10-29T09:06:02Z</time>
      </trkpt>
      <trkpt lat="43.76166" lon="6.54942">
        <ele>1067.2</ele>
        <time>2017-10-29T09:06:11Z</time>
      </trkpt>
      <trkpt lat="43.76174" lon="6.54933">
        <ele>1066.5</ele>
        <time>2017-10-29T09:06:20Z</time>
      </trkpt>
      <trkpt lat="43.76179" lon="6.54922">
        <ele>1066.1</ele>
        <time>2017-10-29T09:06:29Z</time>
      </trkpt>
      <trkpt lat="43.76181" lon="6.54909">
        <ele>1065.9</ele>
        <time>2017-10-29T09:06:38Z</time>
      </trkpt>
      <trkpt lat="43.76183" lon="6.54896">
        <ele>1065.5</ele>
        <time>2017-10-29T09:06:46Z</time>
      </trkpt>
      <trkpt lat="43.76185" lon="6.54883">
        <ele>1064.9</ele>
        <time>2017-10-29T09:06:56Z</time>
      </trkpt>
      <trkpt lat="43.76187" lon="6.5487">
        <ele>1063.3</ele>
        <time>2017-10-29T09:07:12Z</time>
      </trkpt>
      <trkpt lat="43.76192" lon="6.5486">
        <ele>1061.8</ele>
        <time>2017-10-29T09:07:25Z</time>
      </trkpt>
      <trkpt lat="43.762" lon="6.54854">
        <ele>1059.1</ele>
        <time>2017-10-29T09:07:42Z</time>
      </trkpt>
      <trkpt lat="43.7621" lon="6.54852">
        <ele>1056.9</ele>
        <time>2017-10-29T09:07:53Z</time>
      </trkpt>
      <trkpt lat="43.76218" lon="6.54845">
        <ele>1053.6</ele>
        <time>2017-10-29T09:08:11Z</time>
      </trkpt>
      <trkpt lat="43.76226" lon="6.54839">
        <ele>1051.1</ele>
        <time>2017-10-29T09:08:23Z</time>
      </trkpt>
      <trkpt lat="43.76236" lon="6.54835">
        <ele>1049.2</ele>
        <time>2017-10-29T09:08:34Z</time>
      </trkpt>
      <trkpt lat="43.76245" lon="6.54833">
        <ele>1047.6</ele>
        <time>2017-10-29T09:08:43Z</time>
      </trkpt>
      <trkpt lat="43.76251" lon="6.54823">
        <ele>1045.4</ele>
        <time>2017-10-29T09:08:57Z</time>
      </trkpt>
      <trkpt lat="43.7626" lon="6.54819">
        <ele>1042.7</ele>
        <time>2017-10-29T09:09:11Z</time>
      </trkpt>
      <trkpt lat="43.76268" lon="6.54812">
        <ele>1040.8</ele>
        <time>2017-10-29T09:09:22Z</time>
      </trkpt>
      <trkpt lat="43.76277" lon="6.54809">
        <ele>1038.5</ele>
        <time>2017-10-29T09:09:37Z</time>
      </trkpt>
      <trkpt lat="43.76286" lon="6.54805">
        <ele>1036.9</ele>
        <time>2017-10-29T09:09:46Z</time>
      </trkpt>
      <trkpt lat="43.76294" lon="6.54797">
        <ele>1035.3</ele>
        <time>2017-10-29T09:09:59Z</time>
      </trkpt>
      <trkpt lat="43.76301" lon="6.5479">
        <ele>1033.4</ele>
        <time>2017-10-29T09:10:14Z</time>
      </trkpt>
      <trkpt lat="43.76308" lon="6.54781">
        <ele>1030.8</ele>
        <time>2017-10-29T09:10:33Z</time>
      </trkpt>
      <trkpt lat="43.76314" lon="6.54772">
        <ele>1029.1</ele>
        <time>2017-10-29T09:10:44Z</time>
      </trkpt>
      <trkpt lat="43.7632" lon="6.54762">
        <ele>1027.2</ele>
        <time>2017-10-29T09:10:56Z</time>
      </trkpt>
      <trkpt lat="43.76328" lon="6.54755">
        <ele>1025.1</ele>
        <time>2017-10-29T09:11:07Z</time>
      </trkpt>
      <trkpt lat="43.76337" lon="6.54751">
        <ele>1023.6</ele>
        <time>2017-10-29T09:11:17Z</time>
      </trkpt>
      <trkpt lat="43.76346" lon="6.54745">
        <ele>1021.5</ele>
        <time>2017-10-29T09:11:33Z</time>
      </trkpt>
      <trkpt lat="43.76354" lon="6.54738">
        <ele>1017.7</ele>
        <time>2017-10-29T09:12:04Z</time>
      </trkpt>
      <trkpt lat="43.7636" lon="6.54729">
        <ele>1014.5</ele>
        <time>2017-10-29T09:12:21Z</time>
      </trkpt>
      <trkpt lat="43.76368" lon="6.54723">
        <ele>1011.9</ele>
        <time>2017-10-29T09:12:34Z</time>
      </trkpt>
      <trkpt lat="43.76376" lon="6.54716">
        <ele>1008.1</ele>
        <time>2017-10-29T09:12:55Z</time>
      </trkpt>
      <trkpt lat="43.76383" lon="6.54707">
        <ele>1005.8</ele>
        <time>2017-10-29T09:13:11Z</time>
      </trkpt>
      <trkpt lat="43.76387" lon="6.54696">
        <ele>1003.9</ele>
        <time>2017-10-29T09:13:27Z</time>
      </trkpt>
      <trkpt lat="43.76383" lon="6.54684">
        <ele>1002.2</ele>
        <time>2017-10-29T09:13:41Z</time>
      </trkpt>
      <trkpt lat="43.76375" lon="6.54677">
        <ele>1000.5</ele>
        <time>2017-10-29T09:13:52Z</time>
      </trkpt>
      <trkpt lat="43.76366" lon="6.54674">
        <ele>998.5</ele>
        <time>2017-10-29T09:14:05Z</time>
      </trkpt>
      <trkpt lat="43.76357" lon="6.54668">
        <ele>995.8</ele>
        <time>2017-10-29T09:14:18Z</time>
      </trkpt>
      <trkpt lat="43.76348" lon="6.54663">
        <ele>994.3</ele>
        <time>2017-10-29T09:14:25Z</time>
      </trkpt>
      <trkpt lat="43.7634" lon="6.54657">
        <ele>992.3</ele>
        <time>2017-10-29T09:14:35Z</time>
      </trkpt>
      <trkpt lat="43.76332" lon="6.54654">
        <ele>989.9</ele>
        <time>2017-10-29T09:14:48Z</time>
      </trkpt>
      <trkpt lat="43.76323" lon="6.54649">
        <ele>987.4</ele>
        <time>2017-10-29T09:14:59Z</time>
      </trkpt>
      <trkpt lat="43.76313" lon="6.54647">
        <ele>986.1</ele>
        <time>2017-10-29T09:15:07Z</time>
      </trkpt>
      <trkpt lat="43.76304" lon="6.54648">
        <ele>985.2</ele>
        <time>2017-10-29T09:15:16Z</time>
      </trkpt>
      <trkpt lat="43.76295" lon="6.54647">
        <ele>983.7</ele>
        <time>2017-10-29T09:15:36Z</time>
      </trkpt>
      <trkpt lat="43.76286" lon="6.54648">
        <ele>982.3</ele>
        <time>2017-10-29T09:15:53Z</time>
      </trkpt>
      <trkpt lat="43.76276" lon="6.54646">
        <ele>980.9</ele>
        <time>2017-10-29T09:17:26Z</time>
      </trkpt>
      <trkpt lat="43.76267" lon="6.54648">
        <ele>980.6</ele>
        <time>2017-10-29T09:17:39Z</time>
      </trkpt>
      <trkpt lat="43.76257" lon="6.54648">
        <ele>980.6</ele>
        <time>2017-10-29T09:17:48Z</time>
      </trkpt>
      <trkpt lat="43.76248" lon="6.54647">
        <ele>980.5</ele>
        <time>2017-10-29T09:17:56Z</time>
      </trkpt>
      <trkpt lat="43.76239" lon="6.5465">
        <ele>980.2</ele>
        <time>2017-10-29T09:18:04Z</time>
      </trkpt>
      <trkpt lat="43.7623" lon="6.54648">
        <ele>979.5</ele>
        <time>2017-10-29T09:18:13Z</time>
      </trkpt>
      <trkpt lat="43.76221" lon="6.54649">
        <ele>978.3</ele>
        <time>2017-10-29T09:18:29Z</time>
      </trkpt>
      <trkpt lat="43.76212" lon="6.54644">
        <ele>977</ele>
        <time>2017-10-29T09:18:38Z</time>
      </trkpt>
      <trkpt lat="43.76202" lon="6.54643">
        <ele>975.8</ele>
        <time>2017-10-29T09:18:48Z</time>
      </trkpt>
      <trkpt lat="43.76193" lon="6.54645">
        <ele>975.1</ele>
        <time>2017-10-29T09:18:55Z</time>
      </trkpt>
      <trkpt lat="43.76183" lon="6.54647">
        <ele>974.2</ele>
        <time>2017-10-29T09:19:03Z</time>
      </trkpt>
      <trkpt lat="43.76173" lon="6.5465">
        <ele>973.6</ele>
        <time>2017-10-29T09:19:11Z</time>
      </trkpt>
      <trkpt lat="43.76164" lon="6.54651">
        <ele>973.2</ele>
        <time>2017-10-29T09:19:18Z</time>
      </trkpt>
      <trkpt lat="43.76155" lon="6.54655">
        <ele>972.9</ele>
        <time>2017-10-29T09:19:27Z</time>
      </trkpt>
      <trkpt lat="43.76145" lon="6.54655">
        <ele>972.6</ele>
        <time>2017-10-29T09:19:35Z</time>
      </trkpt>
      <trkpt lat="43.76136" lon="6.5465">
        <ele>972.4</ele>
        <time>2017-10-29T09:19:43Z</time>
      </trkpt>
      <trkpt lat="43.76127" lon="6.54646">
        <ele>972</ele>
        <time>2017-10-29T09:19:50Z</time>
      </trkpt>
      <trkpt lat="43.7612" lon="6.54637">
        <ele>971.5</ele>
        <time>2017-10-29T09:20:01Z</time>
      </trkpt>
      <trkpt lat="43.76116" lon="6.54626">
        <ele>971</ele>
        <time>2017-10-29T09:20:11Z</time>
      </trkpt>
      <trkpt lat="43.76125" lon="6.54629">
        <ele>970.5</ele>
        <time>2017-10-29T09:20:25Z</time>
      </trkpt>
      <trkpt lat="43.76131" lon="6.54641">
        <ele>970.2</ele>
        <time>2017-10-29T09:20:32Z</time>
      </trkpt>
      <trkpt lat="43.76135" lon="6.54654">
        <ele>969.7</ele>
        <time>2017-10-29T09:20:37Z</time>
      </trkpt>
      <trkpt lat="43.76141" lon="6.54664">
        <ele>968.8</ele>
        <time>2017-10-29T09:20:44Z</time>
      </trkpt>
      <trkpt lat="43.76151" lon="6.54662">
        <ele>968</ele>
        <time>2017-10-29T09:20:53Z</time>
      </trkpt>
      <trkpt lat="43.76159" lon="6.54654">
        <ele>967.3</ele>
        <time>2017-10-29T09:21:01Z</time>
      </trkpt>
      <trkpt lat="43.76168" lon="6.54646">
        <ele>966.9</ele>
        <time>2017-10-29T09:21:08Z</time>
      </trkpt>
      <trkpt lat="43.76176" lon="6.54641">
        <ele>966.1</ele>
        <time>2017-10-29T09:21:15Z</time>
      </trkpt>
      <trkpt lat="43.76185" lon="6.54637">
        <ele>965.2</ele>
        <time>2017-10-29T09:21:22Z</time>
      </trkpt>
      <trkpt lat="43.76193" lon="6.54629">
        <ele>964.3</ele>
        <time>2017-10-29T09:21:28Z</time>
      </trkpt>
      <trkpt lat="43.762" lon="6.54621">
        <ele>963.7</ele>
        <time>2017-10-29T09:21:35Z</time>
      </trkpt>
      <trkpt lat="43.76206" lon="6.5461">
        <ele>963.2</ele>
        <time>2017-10-29T09:21:43Z</time>
      </trkpt>
      <trkpt lat="43.76212" lon="6.546">
        <ele>962.6</ele>
        <time>2017-10-29T09:21:51Z</time>
      </trkpt>
      <trkpt lat="43.76219" lon="6.5459">
        <ele>961.7</ele>
        <time>2017-10-29T09:21:59Z</time>
      </trkpt>
      <trkpt lat="43.76227" lon="6.54582">
        <ele>960.9</ele>
        <time>2017-10-29T09:22:09Z</time>
      </trkpt>
      <trkpt lat="43.76235" lon="6.54577">
        <ele>960.6</ele>
        <time>2017-10-29T09:22:16Z</time>
      </trkpt>
      <trkpt lat="43.76244" lon="6.54573">
        <ele>959.8</ele>
        <time>2017-10-29T09:22:24Z</time>
      </trkpt>
      <trkpt lat="43.76253" lon="6.54569">
        <ele>959.1</ele>
        <time>2017-10-29T09:22:32Z</time>
      </trkpt>
      <trkpt lat="43.76261" lon="6.54564">
        <ele>958.5</ele>
        <time>2017-10-29T09:22:40Z</time>
      </trkpt>
      <trkpt lat="43.7627" lon="6.54559">
        <ele>957.9</ele>
        <time>2017-10-29T09:22:47Z</time>
      </trkpt>
      <trkpt lat="43.7628" lon="6.54556">
        <ele>956.7</ele>
        <time>2017-10-29T09:22:56Z</time>
      </trkpt>
      <trkpt lat="43.76289" lon="6.54556">
        <ele>955.8</ele>
        <time>2017-10-29T09:23:04Z</time>
      </trkpt>
      <trkpt lat="43.76298" lon="6.54552">
        <ele>955.2</ele>
        <time>2017-10-29T09:23:12Z</time>
      </trkpt>
      <trkpt lat="43.76307" lon="6.54549">
        <ele>954.1</ele>
        <time>2017-10-29T09:23:21Z</time>
      </trkpt>
      <trkpt lat="43.76316" lon="6.54543">
        <ele>953.6</ele>
        <time>2017-10-29T09:23:30Z</time>
      </trkpt>
      <trkpt lat="43.76326" lon="6.54539">
        <ele>953.1</ele>
        <time>2017-10-29T09:23:37Z</time>
      </trkpt>
      <trkpt lat="43.76336" lon="6.54538">
        <ele>952.2</ele>
        <time>2017-10-29T09:23:46Z</time>
      </trkpt>
      <trkpt lat="43.76346" lon="6.54536">
        <ele>951.6</ele>
        <time>2017-10-29T09:23:54Z</time>
      </trkpt>
      <trkpt lat="43.76355" lon="6.5453">
        <ele>950.8</ele>
        <time>2017-10-29T09:24:03Z</time>
      </trkpt>
      <trkpt lat="43.76364" lon="6.54525">
        <ele>950.2</ele>
        <time>2017-10-29T09:24:11Z</time>
      </trkpt>
      <trkpt lat="43.76373" lon="6.54517">
        <ele>949.8</ele>
        <time>2017-10-29T09:24:18Z</time>
      </trkpt>
      <trkpt lat="43.7638" lon="6.5451">
        <ele>949.5</ele>
        <time>2017-10-29T09:24:26Z</time>
      </trkpt>
      <trkpt lat="43.76388" lon="6.54502">
        <ele>948.9</ele>
        <time>2017-10-29T09:24:34Z</time>
      </trkpt>
      <trkpt lat="43.76395" lon="6.54493">
        <ele>948.4</ele>
        <time>2017-10-29T09:24:42Z</time>
      </trkpt>
      <trkpt lat="43.76402" lon="6.54484">
        <ele>948</ele>
        <time>2017-10-29T09:24:50Z</time>
      </trkpt>
      <trkpt lat="43.76411" lon="6.54476">
        <ele>947.6</ele>
        <time>2017-10-29T09:24:59Z</time>
      </trkpt>
      <trkpt lat="43.76419" lon="6.54468">
        <ele>947.1</ele>
        <time>2017-10-29T09:25:07Z</time>
      </trkpt>
      <trkpt lat="43.76425" lon="6.54458">
        <ele>946.4</ele>
        <time>2017-10-29T09:25:16Z</time>
      </trkpt>
      <trkpt lat="43.76431" lon="6.54448">
        <ele>945.8</ele>
        <time>2017-10-29T09:25:24Z</time>
      </trkpt>
      <trkpt lat="43.76438" lon="6.54438">
        <ele>945</ele>
        <time>2017-10-29T09:25:32Z</time>
      </trkpt>
      <trkpt lat="43.76444" lon="6.54426">
        <ele>944.4</ele>
        <time>2017-10-29T09:25:41Z</time>
      </trkpt>
      <trkpt lat="43.76449" lon="6.54416">
        <ele>943.5</ele>
        <time>2017-10-29T09:25:49Z</time>
      </trkpt>
      <trkpt lat="43.76456" lon="6.54408">
        <ele>942.9</ele>
        <time>2017-10-29T09:25:57Z</time>
      </trkpt>
      <trkpt lat="43.76466" lon="6.54405">
        <ele>942.4</ele>
        <time>2017-10-29T09:26:08Z</time>
      </trkpt>
      <trkpt lat="43.76475" lon="6.54406">
        <ele>941.9</ele>
        <time>2017-10-29T09:26:19Z</time>
      </trkpt>
      <trkpt lat="43.76484" lon="6.54409">
        <ele>941.3</ele>
        <time>2017-10-29T09:26:28Z</time>
      </trkpt>
      <trkpt lat="43.76493" lon="6.54412">
        <ele>940.8</ele>
        <time>2017-10-29T09:26:39Z</time>
      </trkpt>
      <trkpt lat="43.76502" lon="6.54414">
        <ele>940.1</ele>
        <time>2017-10-29T09:26:47Z</time>
      </trkpt>
      <trkpt lat="43.76512" lon="6.54416">
        <ele>939.3</ele>
        <time>2017-10-29T09:26:57Z</time>
      </trkpt>
      <trkpt lat="43.76521" lon="6.54416">
        <ele>938.8</ele>
        <time>2017-10-29T09:27:05Z</time>
      </trkpt>
      <trkpt lat="43.7653" lon="6.54412">
        <ele>938.2</ele>
        <time>2017-10-29T09:27:14Z</time>
      </trkpt>
      <trkpt lat="43.76539" lon="6.54406">
        <ele>937.8</ele>
        <time>2017-10-29T09:27:22Z</time>
      </trkpt>
      <trkpt lat="43.76548" lon="6.54403">
        <ele>937</ele>
        <time>2017-10-29T09:27:32Z</time>
      </trkpt>
      <trkpt lat="43.76557" lon="6.54398">
        <ele>936.5</ele>
        <time>2017-10-29T09:27:39Z</time>
      </trkpt>
      <trkpt lat="43.76565" lon="6.54392">
        <ele>936.1</ele>
        <time>2017-10-29T09:27:47Z</time>
      </trkpt>
      <trkpt lat="43.76574" lon="6.54386">
        <ele>935.3</ele>
        <time>2017-10-29T09:27:56Z</time>
      </trkpt>
      <trkpt lat="43.76584" lon="6.54385">
        <ele>934.7</ele>
        <time>2017-10-29T09:28:05Z</time>
      </trkpt>
      <trkpt lat="43.76593" lon="6.54384">
        <ele>933.9</ele>
        <time>2017-10-29T09:28:14Z</time>
      </trkpt>
      <trkpt lat="43.76603" lon="6.54379">
        <ele>933.3</ele>
        <time>2017-10-29T09:28:23Z</time>
      </trkpt>
      <trkpt lat="43.76612" lon="6.54377">
        <ele>931.9</ele>
        <time>2017-10-29T09:29:06Z</time>
      </trkpt>
      <trkpt lat="43.7662" lon="6.5437">
        <ele>931.3</ele>
        <time>2017-10-29T09:29:33Z</time>
      </trkpt>
      <trkpt lat="43.76629" lon="6.54375">
        <ele>931.1</ele>
        <time>2017-10-29T09:30:12Z</time>
      </trkpt>
      <trkpt lat="43.76638" lon="6.54377">
        <ele>930.9</ele>
        <time>2017-10-29T09:30:35Z</time>
      </trkpt>
      <trkpt lat="43.76647" lon="6.54378">
        <ele>930.8</ele>
        <time>2017-10-29T09:30:43Z</time>
      </trkpt>
      <trkpt lat="43.76657" lon="6.54375">
        <ele>930.8</ele>
        <time>2017-10-29T09:30:52Z</time>
      </trkpt>
      <trkpt lat="43.76666" lon="6.54372">
        <ele>930.8</ele>
        <time>2017-10-29T09:31:03Z</time>
      </trkpt>
      <trkpt lat="43.76676" lon="6.54368">
        <ele>931</ele>
        <time>2017-10-29T09:31:12Z</time>
      </trkpt>
      <trkpt lat="43.76679" lon="6.5438">
        <ele>932</ele>
        <time>2017-10-29T09:31:27Z</time>
      </trkpt>
      <trkpt lat="43.76677" lon="6.54393">
        <ele>932.5</ele>
        <time>2017-10-29T09:31:41Z</time>
      </trkpt>
      <trkpt lat="43.76681" lon="6.54405">
        <ele>931.5</ele>
        <time>2017-10-29T09:31:51Z</time>
      </trkpt>
      <trkpt lat="43.76685" lon="6.54417">
        <ele>930.8</ele>
        <time>2017-10-29T09:31:59Z</time>
      </trkpt>
      <trkpt lat="43.76688" lon="6.54429">
        <ele>929.3</ele>
        <time>2017-10-29T09:32:13Z</time>
      </trkpt>
      <trkpt lat="43.76695" lon="6.54439">
        <ele>928.1</ele>
        <time>2017-10-29T09:32:21Z</time>
      </trkpt>
      <trkpt lat="43.76701" lon="6.54448">
        <ele>926.7</ele>
        <time>2017-10-29T09:32:29Z</time>
      </trkpt>
      <trkpt lat="43.76707" lon="6.54458">
        <ele>925.1</ele>
        <time>2017-10-29T09:32:38Z</time>
      </trkpt>
      <trkpt lat="43.76711" lon="6.5447">
        <ele>923.1</ele>
        <time>2017-10-29T09:32:51Z</time>
      </trkpt>
      <trkpt lat="43.76716" lon="6.54481">
        <ele>921.8</ele>
        <time>2017-10-29T09:32:59Z</time>
      </trkpt>
      <trkpt lat="43.76723" lon="6.54491">
        <ele>921</ele>
        <time>2017-10-29T09:33:06Z</time>
      </trkpt>
      <trkpt lat="43.76728" lon="6.54503">
        <ele>919.6</ele>
        <time>2017-10-29T09:33:15Z</time>
      </trkpt>
      <trkpt lat="43.76732" lon="6.54515">
        <ele>918.1</ele>
        <time>2017-10-29T09:33:23Z</time>
      </trkpt>
      <trkpt lat="43.76739" lon="6.54524">
        <ele>916.1</ele>
        <time>2017-10-29T09:33:33Z</time>
      </trkpt>
      <trkpt lat="43.76745" lon="6.54533">
        <ele>913.2</ele>
        <time>2017-10-29T09:33:45Z</time>
      </trkpt>
      <trkpt lat="43.76751" lon="6.54545">
        <ele>911.2</ele>
        <time>2017-10-29T09:33:55Z</time>
      </trkpt>
      <trkpt lat="43.76755" lon="6.54557">
        <ele>909.7</ele>
        <time>2017-10-29T09:34:03Z</time>
      </trkpt>
      <trkpt lat="43.76758" lon="6.54569">
        <ele>907.9</ele>
        <time>2017-10-29T09:34:12Z</time>
      </trkpt>
      <trkpt lat="43.76761" lon="6.54581">
        <ele>906.4</ele>
        <time>2017-10-29T09:34:22Z</time>
      </trkpt>
      <trkpt lat="43.76765" lon="6.54593">
        <ele>905.1</ele>
        <time>2017-10-29T09:34:32Z</time>
      </trkpt>
      <trkpt lat="43.76769" lon="6.54605">
        <ele>903.3</ele>
        <time>2017-10-29T09:34:43Z</time>
      </trkpt>
      <trkpt lat="43.76774" lon="6.54617">
        <ele>901.7</ele>
        <time>2017-10-29T09:34:53Z</time>
      </trkpt>
      <trkpt lat="43.76778" lon="6.54628">
        <ele>900.8</ele>
        <time>2017-10-29T09:35:03Z</time>
      </trkpt>
      <trkpt lat="43.76782" lon="6.5464">
        <ele>899.2</ele>
        <time>2017-10-29T09:35:13Z</time>
      </trkpt>
      <trkpt lat="43.76787" lon="6.54652">
        <ele>897.6</ele>
        <time>2017-10-29T09:35:23Z</time>
      </trkpt>
      <trkpt lat="43.76791" lon="6.54664">
        <ele>895.8</ele>
        <time>2017-10-29T09:35:32Z</time>
      </trkpt>
      <trkpt lat="43.76797" lon="6.54674">
        <ele>894.2</ele>
        <time>2017-10-29T09:35:42Z</time>
      </trkpt>
      <trkpt lat="43.76802" lon="6.54686">
        <ele>892.4</ele>
        <time>2017-10-29T09:35:52Z</time>
      </trkpt>
      <trkpt lat="43.76807" lon="6.54697">
        <ele>890.8</ele>
        <time>2017-10-29T09:36:01Z</time>
      </trkpt>
      <trkpt lat="43.7681" lon="6.54709">
        <ele>889.1</ele>
        <time>2017-10-29T09:36:10Z</time>
      </trkpt>
      <trkpt lat="43.76811" lon="6.54723">
        <ele>887.2</ele>
        <time>2017-10-29T09:36:20Z</time>
      </trkpt>
      <trkpt lat="43.76813" lon="6.54735">
        <ele>885.8</ele>
        <time>2017-10-29T09:36:30Z</time>
      </trkpt>
      <trkpt lat="43.76815" lon="6.54747">
        <ele>884.4</ele>
        <time>2017-10-29T09:36:38Z</time>
      </trkpt>
      <trkpt lat="43.76819" lon="6.54759">
        <ele>883</ele>
        <time>2017-10-29T09:36:48Z</time>
      </trkpt>
      <trkpt lat="43.76825" lon="6.5477">
        <ele>882.2</ele>
        <time>2017-10-29T09:36:57Z</time>
      </trkpt>
      <trkpt lat="43.76831" lon="6.5478">
        <ele>881.1</ele>
        <time>2017-10-29T09:37:07Z</time>
      </trkpt>
      <trkpt lat="43.76838" lon="6.54789">
        <ele>880.5</ele>
        <time>2017-10-29T09:37:15Z</time>
      </trkpt>
      <trkpt lat="43.76843" lon="6.548">
        <ele>879.3</ele>
        <time>2017-10-29T09:37:25Z</time>
      </trkpt>
      <trkpt lat="43.76849" lon="6.54811">
        <ele>878.9</ele>
        <time>2017-10-29T09:37:35Z</time>
      </trkpt>
      <trkpt lat="43.76853" lon="6.54823">
        <ele>878.1</ele>
        <time>2017-10-29T09:37:43Z</time>
      </trkpt>
      <trkpt lat="43.76857" lon="6.54835">
        <ele>877.2</ele>
        <time>2017-10-29T09:37:51Z</time>
      </trkpt>
      <trkpt lat="43.76862" lon="6.54846">
        <ele>876.4</ele>
        <time>2017-10-29T09:37:59Z</time>
      </trkpt>
      <trkpt lat="43.76868" lon="6.54857">
        <ele>876.1</ele>
        <time>2017-10-29T09:38:07Z</time>
      </trkpt>
      <trkpt lat="43.76874" lon="6.54867">
        <ele>875.6</ele>
        <time>2017-10-29T09:38:16Z</time>
      </trkpt>
      <trkpt lat="43.76881" lon="6.54876">
        <ele>875</ele>
        <time>2017-10-29T09:38:25Z</time>
      </trkpt>
      <trkpt lat="43.76888" lon="6.54885">
        <ele>874.2</ele>
        <time>2017-10-29T09:38:35Z</time>
      </trkpt>
      <trkpt lat="43.76895" lon="6.54893">
        <ele>872.8</ele>
        <time>2017-10-29T09:38:45Z</time>
      </trkpt>
      <trkpt lat="43.76902" lon="6.54901">
        <ele>871.3</ele>
        <time>2017-10-29T09:38:53Z</time>
      </trkpt>
      <trkpt lat="43.7691" lon="6.54908">
        <ele>870.2</ele>
        <time>2017-10-29T09:39:01Z</time>
      </trkpt>
      <trkpt lat="43.7692" lon="6.54912">
        <ele>869.3</ele>
        <time>2017-10-29T09:39:09Z</time>
      </trkpt>
      <trkpt lat="43.76929" lon="6.54908">
        <ele>868.8</ele>
        <time>2017-10-29T09:39:16Z</time>
      </trkpt>
      <trkpt lat="43.76938" lon="6.54904">
        <ele>868.5</ele>
        <time>2017-10-29T09:39:23Z</time>
      </trkpt>
      <trkpt lat="43.76947" lon="6.54901">
        <ele>868.3</ele>
        <time>2017-10-29T09:39:32Z</time>
      </trkpt>
      <trkpt lat="43.76952" lon="6.54891">
        <ele>868</ele>
        <time>2017-10-29T09:39:52Z</time>
      </trkpt>
      <trkpt lat="43.76961" lon="6.54892">
        <ele>867.7</ele>
        <time>2017-10-29T09:40:40Z</time>
      </trkpt>
      <trkpt lat="43.76953" lon="6.54887">
        <ele>867.9</ele>
        <time>2017-10-29T09:41:56Z</time>
      </trkpt>
      <trkpt lat="43.76962" lon="6.54888">
        <ele>868.1</ele>
        <time>2017-10-29T09:42:47Z</time>
      </trkpt>
      <trkpt lat="43.7697" lon="6.54883">
        <ele>868.3</ele>
        <time>2017-10-29T09:42:59Z</time>
      </trkpt>
      <trkpt lat="43.76976" lon="6.54873">
        <ele>868.7</ele>
        <time>2017-10-29T09:43:15Z</time>
      </trkpt>
      <trkpt lat="43.76984" lon="6.54866">
        <ele>869.3</ele>
        <time>2017-10-29T09:43:24Z</time>
      </trkpt>
      <trkpt lat="43.76991" lon="6.54857">
        <ele>869.7</ele>
        <time>2017-10-29T09:43:33Z</time>
      </trkpt>
      <trkpt lat="43.76997" lon="6.54848">
        <ele>870.1</ele>
        <time>2017-10-29T09:43:42Z</time>
      </trkpt>
      <trkpt lat="43.77002" lon="6.54837">
        <ele>870.2</ele>
        <time>2017-10-29T09:43:50Z</time>
      </trkpt>
      <trkpt lat="43.77004" lon="6.54824">
        <ele>870.3</ele>
        <time>2017-10-29T09:43:58Z</time>
      </trkpt>
      <trkpt lat="43.77008" lon="6.54811">
        <ele>870.1</ele>
        <time>2017-10-29T09:44:07Z</time>
      </trkpt>
      <trkpt lat="43.77009" lon="6.54798">
        <ele>869.7</ele>
        <time>2017-10-29T09:44:15Z</time>
      </trkpt>
      <trkpt lat="43.77013" lon="6.54786">
        <ele>869.3</ele>
        <time>2017-10-29T09:44:21Z</time>
      </trkpt>
      <trkpt lat="43.77016" lon="6.54773">
        <ele>868.8</ele>
        <time>2017-10-29T09:44:28Z</time>
      </trkpt>
      <trkpt lat="43.77021" lon="6.54762">
        <ele>868.2</ele>
        <time>2017-10-29T09:44:36Z</time>
      </trkpt>
      <trkpt lat="43.77023" lon="6.54749">
        <ele>868.1</ele>
        <time>2017-10-29T09:44:44Z</time>
      </trkpt>
      <trkpt lat="43.77024" lon="6.54736">
        <ele>868.1</ele>
        <time>2017-10-29T09:44:53Z</time>
      </trkpt>
      <trkpt lat="43.77024" lon="6.54722">
        <ele>868.5</ele>
        <time>2017-10-29T09:45:02Z</time>
      </trkpt>
      <trkpt lat="43.77026" lon="6.54709">
        <ele>868.7</ele>
        <time>2017-10-29T09:45:11Z</time>
      </trkpt>
      <trkpt lat="43.77029" lon="6.54697">
        <ele>868.3</ele>
        <time>2017-10-29T09:45:19Z</time>
      </trkpt>
      <trkpt lat="43.77034" lon="6.54686">
        <ele>867</ele>
        <time>2017-10-29T09:45:30Z</time>
      </trkpt>
      <trkpt lat="43.77039" lon="6.54674">
        <ele>865.8</ele>
        <time>2017-10-29T09:45:38Z</time>
      </trkpt>
      <trkpt lat="43.77045" lon="6.54662">
        <ele>864.3</ele>
        <time>2017-10-29T09:45:47Z</time>
      </trkpt>
      <trkpt lat="43.77048" lon="6.54649">
        <ele>863.2</ele>
        <time>2017-10-29T09:45:56Z</time>
      </trkpt>
      <trkpt lat="43.77051" lon="6.54636">
        <ele>862.2</ele>
        <time>2017-10-29T09:46:04Z</time>
      </trkpt>
      <trkpt lat="43.77056" lon="6.54625">
        <ele>860.8</ele>
        <time>2017-10-29T09:46:14Z</time>
      </trkpt>
      <trkpt lat="43.77062" lon="6.54615">
        <ele>859.5</ele>
        <time>2017-10-29T09:46:23Z</time>
      </trkpt>
      <trkpt lat="43.77068" lon="6.54604">
        <ele>858.9</ele>
        <time>2017-10-29T09:46:31Z</time>
      </trkpt>
      <trkpt lat="43.77073" lon="6.54594">
        <ele>858.7</ele>
        <time>2017-10-29T09:46:38Z</time>
      </trkpt>
      <trkpt lat="43.77079" lon="6.54583">
        <ele>858.9</ele>
        <time>2017-10-29T09:46:46Z</time>
      </trkpt>
      <trkpt lat="43.77086" lon="6.54574">
        <ele>858.9</ele>
        <time>2017-10-29T09:46:54Z</time>
      </trkpt>
      <trkpt lat="43.77091" lon="6.54563">
        <ele>858.8</ele>
        <time>2017-10-29T09:47:07Z</time>
      </trkpt>
      <trkpt lat="43.77099" lon="6.54555">
        <ele>859.7</ele>
        <time>2017-10-29T09:47:20Z</time>
      </trkpt>
      <trkpt lat="43.77106" lon="6.54547">
        <ele>860.5</ele>
        <time>2017-10-29T09:47:32Z</time>
      </trkpt>
      <trkpt lat="43.77106" lon="6.5456">
        <ele>862.8</ele>
        <time>2017-10-29T09:48:05Z</time>
      </trkpt>
      <trkpt lat="43.77103" lon="6.54573">
        <ele>864.3</ele>
        <time>2017-10-29T09:48:20Z</time>
      </trkpt>
      <trkpt lat="43.77104" lon="6.54585">
        <ele>865.4</ele>
        <time>2017-10-29T09:48:34Z</time>
      </trkpt>
      <trkpt lat="43.77113" lon="6.54584">
        <ele>866.4</ele>
        <time>2017-10-29T09:48:48Z</time>
      </trkpt>
      <trkpt lat="43.77113" lon="6.54597">
        <ele>867.6</ele>
        <time>2017-10-29T09:49:07Z</time>
      </trkpt>
      <trkpt lat="43.77113" lon="6.5461">
        <ele>868.7</ele>
        <time>2017-10-29T09:49:22Z</time>
      </trkpt>
      <trkpt lat="43.77114" lon="6.54623">
        <ele>869.5</ele>
        <time>2017-10-29T09:49:33Z</time>
      </trkpt>
      <trkpt lat="43.77113" lon="6.54636">
        <ele>869.8</ele>
        <time>2017-10-29T09:49:43Z</time>
      </trkpt>
      <trkpt lat="43.77116" lon="6.54649">
        <ele>870</ele>
        <time>2017-10-29T09:49:54Z</time>
      </trkpt>
      <trkpt lat="43.77119" lon="6.54661">
        <ele>870.2</ele>
        <time>2017-10-29T09:50:04Z</time>
      </trkpt>
      <trkpt lat="43.77122" lon="6.54673">
        <ele>870.7</ele>
        <time>2017-10-29T09:50:13Z</time>
      </trkpt>
      <trkpt lat="43.77125" lon="6.54685">
        <ele>871.2</ele>
        <time>2017-10-29T09:50:21Z</time>
      </trkpt>
      <trkpt lat="43.77127" lon="6.54699">
        <ele>871.4</ele>
        <time>2017-10-29T09:50:30Z</time>
      </trkpt>
      <trkpt lat="43.77129" lon="6.54712">
        <ele>871.9</ele>
        <time>2017-10-29T09:50:39Z</time>
      </trkpt>
      <trkpt lat="43.7713" lon="6.54725">
        <ele>872.4</ele>
        <time>2017-10-29T09:50:49Z</time>
      </trkpt>
      <trkpt lat="43.77134" lon="6.54737">
        <ele>873.3</ele>
        <time>2017-10-29T09:50:58Z</time>
      </trkpt>
      <trkpt lat="43.77144" lon="6.54738">
        <ele>874.4</ele>
        <time>2017-10-29T09:51:09Z</time>
      </trkpt>
      <trkpt lat="43.77147" lon="6.54726">
        <ele>875.3</ele>
        <time>2017-10-29T09:51:18Z</time>
      </trkpt>
      <trkpt lat="43.77147" lon="6.54713">
        <ele>876.7</ele>
        <time>2017-10-29T09:51:30Z</time>
      </trkpt>
      <trkpt lat="43.77146" lon="6.54699">
        <ele>877.9</ele>
        <time>2017-10-29T09:51:41Z</time>
      </trkpt>
      <trkpt lat="43.77147" lon="6.54686">
        <ele>879</ele>
        <time>2017-10-29T09:51:52Z</time>
      </trkpt>
      <trkpt lat="43.77148" lon="6.54673">
        <ele>880.3</ele>
        <time>2017-10-29T09:52:03Z</time>
      </trkpt>
      <trkpt lat="43.77147" lon="6.54659">
        <ele>881.6</ele>
        <time>2017-10-29T09:52:14Z</time>
      </trkpt>
      <trkpt lat="43.77148" lon="6.54646">
        <ele>882.5</ele>
        <time>2017-10-29T09:52:24Z</time>
      </trkpt>
      <trkpt lat="43.77147" lon="6.54632">
        <ele>883.3</ele>
        <time>2017-10-29T09:52:34Z</time>
      </trkpt>
      <trkpt lat="43.77147" lon="6.5462">
        <ele>884.1</ele>
        <time>2017-10-29T09:52:43Z</time>
      </trkpt>
      <trkpt lat="43.77148" lon="6.54606">
        <ele>884.7</ele>
        <time>2017-10-29T09:52:52Z</time>
      </trkpt>
      <trkpt lat="43.7715" lon="6.54594">
        <ele>885</ele>
        <time>2017-10-29T09:53:01Z</time>
      </trkpt>
      <trkpt lat="43.77154" lon="6.54581">
        <ele>885.3</ele>
        <time>2017-10-29T09:53:11Z</time>
      </trkpt>
      <trkpt lat="43.77157" lon="6.54569">
        <ele>885.8</ele>
        <time>2017-10-29T09:53:20Z</time>
      </trkpt>
      <trkpt lat="43.7716" lon="6.54556">
        <ele>886</ele>
        <time>2017-10-29T09:53:29Z</time>
      </trkpt>
      <trkpt lat="43.77161" lon="6.54543">
        <ele>886</ele>
        <time>2017-10-29T09:53:37Z</time>
      </trkpt>
      <trkpt lat="43.77164" lon="6.54531">
        <ele>886</ele>
        <time>2017-10-29T09:53:48Z</time>
      </trkpt>
      <trkpt lat="43.77168" lon="6.54519">
        <ele>886.2</ele>
        <time>2017-10-29T09:53:56Z</time>
      </trkpt>
      <trkpt lat="43.7717" lon="6.54507">
        <ele>886.3</ele>
        <time>2017-10-29T09:54:04Z</time>
      </trkpt>
      <trkpt lat="43.77171" lon="6.54494">
        <ele>886.4</ele>
        <time>2017-10-29T09:54:12Z</time>
      </trkpt>
      <trkpt lat="43.77175" lon="6.54482">
        <ele>886.4</ele>
        <time>2017-10-29T09:54:21Z</time>
      </trkpt>
      <trkpt lat="43.77181" lon="6.54472">
        <ele>886.2</ele>
        <time>2017-10-29T09:54:30Z</time>
      </trkpt>
      <trkpt lat="43.77182" lon="6.54459">
        <ele>885.5</ele>
        <time>2017-10-29T09:54:40Z</time>
      </trkpt>
      <trkpt lat="43.77182" lon="6.54445">
        <ele>885.1</ele>
        <time>2017-10-29T09:54:50Z</time>
      </trkpt>
      <trkpt lat="43.77186" lon="6.54433">
        <ele>884.8</ele>
        <time>2017-10-29T09:55:00Z</time>
      </trkpt>
      <trkpt lat="43.77192" lon="6.54423">
        <ele>884.6</ele>
        <time>2017-10-29T09:55:09Z</time>
      </trkpt>
      <trkpt lat="43.77198" lon="6.54413">
        <ele>884.2</ele>
        <time>2017-10-29T09:55:18Z</time>
      </trkpt>
      <trkpt lat="43.77198" lon="6.544">
        <ele>883.6</ele>
        <time>2017-10-29T09:55:26Z</time>
      </trkpt>
      <trkpt lat="43.772" lon="6.54387">
        <ele>882.9</ele>
        <time>2017-10-29T09:55:34Z</time>
      </trkpt>
      <trkpt lat="43.77206" lon="6.54378">
        <ele>882.3</ele>
        <time>2017-10-29T09:55:44Z</time>
      </trkpt>
      <trkpt lat="43.7721" lon="6.54366">
        <ele>881.4</ele>
        <time>2017-10-29T09:55:53Z</time>
      </trkpt>
      <trkpt lat="43.77217" lon="6.54359">
        <ele>880.6</ele>
        <time>2017-10-29T09:56:01Z</time>
      </trkpt>
      <trkpt lat="43.77225" lon="6.54351">
        <ele>879.9</ele>
        <time>2017-10-29T09:56:09Z</time>
      </trkpt>
      <trkpt lat="43.77227" lon="6.54338">
        <ele>879.2</ele>
        <time>2017-10-29T09:56:16Z</time>
      </trkpt>
      <trkpt lat="43.77226" lon="6.54325">
        <ele>878.6</ele>
        <time>2017-10-29T09:56:24Z</time>
      </trkpt>
      <trkpt lat="43.77227" lon="6.54312">
        <ele>878.1</ele>
        <time>2017-10-29T09:56:32Z</time>
      </trkpt>
      <trkpt lat="43.77232" lon="6.543">
        <ele>877.5</ele>
        <time>2017-10-29T09:56:39Z</time>
      </trkpt>
      <trkpt lat="43.77237" lon="6.54289">
        <ele>877</ele>
        <time>2017-10-29T09:56:46Z</time>
      </trkpt>
      <trkpt lat="43.7724" lon="6.54276">
        <ele>876.2</ele>
        <time>2017-10-29T09:56:55Z</time>
      </trkpt>
      <trkpt lat="43.77242" lon="6.54263">
        <ele>875</ele>
        <time>2017-10-29T09:57:04Z</time>
      </trkpt>
      <trkpt lat="43.7724" lon="6.5425">
        <ele>873.9</ele>
        <time>2017-10-29T09:57:13Z</time>
      </trkpt>
      <trkpt lat="43.77238" lon="6.54237">
        <ele>873.2</ele>
        <time>2017-10-29T09:57:21Z</time>
      </trkpt>
      <trkpt lat="43.77236" lon="6.54224">
        <ele>872.4</ele>
        <time>2017-10-29T09:57:30Z</time>
      </trkpt>
      <trkpt lat="43.77234" lon="6.54211">
        <ele>871.6</ele>
        <time>2017-10-29T09:57:36Z</time>
      </trkpt>
      <trkpt lat="43.77234" lon="6.54197">
        <ele>870.2</ele>
        <time>2017-10-29T09:57:45Z</time>
      </trkpt>
      <trkpt lat="43.77237" lon="6.54185">
        <ele>869.2</ele>
        <time>2017-10-29T09:57:52Z</time>
      </trkpt>
      <trkpt lat="43.7724" lon="6.54173">
        <ele>868.3</ele>
        <time>2017-10-29T09:58:00Z</time>
      </trkpt>
      <trkpt lat="43.77245" lon="6.54161">
        <ele>867.6</ele>
        <time>2017-10-29T09:58:07Z</time>
      </trkpt>
      <trkpt lat="43.7725" lon="6.54149">
        <ele>866.8</ele>
        <time>2017-10-29T09:58:16Z</time>
      </trkpt>
      <trkpt lat="43.77257" lon="6.54139">
        <ele>866.1</ele>
        <time>2017-10-29T09:58:23Z</time>
      </trkpt>
      <trkpt lat="43.77263" lon="6.54128">
        <ele>865.2</ele>
        <time>2017-10-29T09:58:30Z</time>
      </trkpt>
      <trkpt lat="43.77267" lon="6.54116">
        <ele>864.4</ele>
        <time>2017-10-29T09:58:37Z</time>
      </trkpt>
      <trkpt lat="43.77271" lon="6.54103">
        <ele>863.4</ele>
        <time>2017-10-29T09:58:46Z</time>
      </trkpt>
      <trkpt lat="43.77274" lon="6.5409">
        <ele>862.6</ele>
        <time>2017-10-29T09:58:55Z</time>
      </trkpt>
      <trkpt lat="43.77279" lon="6.54078">
        <ele>861.6</ele>
        <time>2017-10-29T09:59:03Z</time>
      </trkpt>
      <trkpt lat="43.77283" lon="6.54066">
        <ele>860.7</ele>
        <time>2017-10-29T09:59:11Z</time>
      </trkpt>
      <trkpt lat="43.77288" lon="6.54054">
        <ele>859.7</ele>
        <time>2017-10-29T09:59:19Z</time>
      </trkpt>
      <trkpt lat="43.77293" lon="6.54043">
        <ele>858.4</ele>
        <time>2017-10-29T09:59:28Z</time>
      </trkpt>
      <trkpt lat="43.77299" lon="6.54033">
        <ele>857.3</ele>
        <time>2017-10-29T09:59:36Z</time>
      </trkpt>
      <trkpt lat="43.77307" lon="6.54026">
        <ele>854.4</ele>
        <time>2017-10-29T10:00:03Z</time>
      </trkpt>
      <trkpt lat="43.77317" lon="6.54026">
        <ele>853.9</ele>
        <time>2017-10-29T10:00:13Z</time>
      </trkpt>
      <trkpt lat="43.77326" lon="6.54026">
        <ele>853</ele>
        <time>2017-10-29T10:00:26Z</time>
      </trkpt>
      <trkpt lat="43.77334" lon="6.54018">
        <ele>852.2</ele>
        <time>2017-10-29T10:00:36Z</time>
      </trkpt>
      <trkpt lat="43.77329" lon="6.54006">
        <ele>851.1</ele>
        <time>2017-10-29T10:00:45Z</time>
      </trkpt>
      <trkpt lat="43.7732" lon="6.53998">
        <ele>849.9</ele>
        <time>2017-10-29T10:00:54Z</time>
      </trkpt>
      <trkpt lat="43.77313" lon="6.53991">
        <ele>849</ele>
        <time>2017-10-29T10:01:00Z</time>
      </trkpt>
      <trkpt lat="43.77305" lon="6.53983">
        <ele>847.7</ele>
        <time>2017-10-29T10:01:08Z</time>
      </trkpt>
      <trkpt lat="43.77295" lon="6.5398">
        <ele>846.4</ele>
        <time>2017-10-29T10:01:17Z</time>
      </trkpt>
      <trkpt lat="43.77285" lon="6.53981">
        <ele>845.1</ele>
        <time>2017-10-29T10:01:26Z</time>
      </trkpt>
      <trkpt lat="43.77279" lon="6.53971">
        <ele>843.7</ele>
        <time>2017-10-29T10:01:36Z</time>
      </trkpt>
      <trkpt lat="43.77279" lon="6.53957">
        <ele>842.2</ele>
        <time>2017-10-29T10:01:47Z</time>
      </trkpt>
      <trkpt lat="43.77281" lon="6.53945">
        <ele>841.5</ele>
        <time>2017-10-29T10:01:55Z</time>
      </trkpt>
      <trkpt lat="43.77284" lon="6.53933">
        <ele>841</ele>
        <time>2017-10-29T10:02:03Z</time>
      </trkpt>
      <trkpt lat="43.77284" lon="6.53919">
        <ele>840.5</ele>
        <time>2017-10-29T10:02:11Z</time>
      </trkpt>
      <trkpt lat="43.77284" lon="6.53906">
        <ele>839.7</ele>
        <time>2017-10-29T10:02:20Z</time>
      </trkpt>
      <trkpt lat="43.77286" lon="6.53893">
        <ele>838.7</ele>
        <time>2017-10-29T10:02:29Z</time>
      </trkpt>
      <trkpt lat="43.77285" lon="6.53879">
        <ele>837</ele>
        <time>2017-10-29T10:02:44Z</time>
      </trkpt>
      <trkpt lat="43.77279" lon="6.53869">
        <ele>836.1</ele>
        <time>2017-10-29T10:02:54Z</time>
      </trkpt>
      <trkpt lat="43.77273" lon="6.53858">
        <ele>835.5</ele>
        <time>2017-10-29T10:03:05Z</time>
      </trkpt>
      <trkpt lat="43.77275" lon="6.53845">
        <ele>835.1</ele>
        <time>2017-10-29T10:04:15Z</time>
      </trkpt>
      <trkpt lat="43.77272" lon="6.53857">
        <ele>834.7</ele>
        <time>2017-10-29T10:04:57Z</time>
      </trkpt>
      <trkpt lat="43.77276" lon="6.53846">
        <ele>834.8</ele>
        <time>2017-10-29T10:06:10Z</time>
      </trkpt>
      <trkpt lat="43.7728" lon="6.53834">
        <ele>835.7</ele>
        <time>2017-10-29T10:10:39Z</time>
      </trkpt>
      <trkpt lat="43.77278" lon="6.53821">
        <ele>835.6</ele>
        <time>2017-10-29T10:10:51Z</time>
      </trkpt>
      <trkpt lat="43.77276" lon="6.53808">
        <ele>835.7</ele>
        <time>2017-10-29T10:11:04Z</time>
      </trkpt>
      <trkpt lat="43.7727" lon="6.53798">
        <ele>835.9</ele>
        <time>2017-10-29T10:11:14Z</time>
      </trkpt>
      <trkpt lat="43.77263" lon="6.53789">
        <ele>836</ele>
        <time>2017-10-29T10:11:21Z</time>
      </trkpt>
      <trkpt lat="43.77254" lon="6.53781">
        <ele>835.8</ele>
        <time>2017-10-29T10:11:29Z</time>
      </trkpt>
      <trkpt lat="43.77247" lon="6.53773">
        <ele>835.4</ele>
        <time>2017-10-29T10:11:40Z</time>
      </trkpt>
      <trkpt lat="43.77239" lon="6.53765">
        <ele>835.1</ele>
        <time>2017-10-29T10:11:46Z</time>
      </trkpt>
      <trkpt lat="43.77231" lon="6.53757">
        <ele>834.8</ele>
        <time>2017-10-29T10:11:53Z</time>
      </trkpt>
      <trkpt lat="43.77223" lon="6.53749">
        <ele>834.6</ele>
        <time>2017-10-29T10:11:59Z</time>
      </trkpt>
      <trkpt lat="43.77215" lon="6.53741">
        <ele>834.5</ele>
        <time>2017-10-29T10:12:06Z</time>
      </trkpt>
      <trkpt lat="43.77207" lon="6.53732">
        <ele>834.3</ele>
        <time>2017-10-29T10:12:14Z</time>
      </trkpt>
      <trkpt lat="43.77199" lon="6.53724">
        <ele>833.9</ele>
        <time>2017-10-29T10:12:22Z</time>
      </trkpt>
      <trkpt lat="43.77191" lon="6.53717">
        <ele>833.6</ele>
        <time>2017-10-29T10:12:30Z</time>
      </trkpt>
      <trkpt lat="43.77183" lon="6.5371">
        <ele>833.5</ele>
        <time>2017-10-29T10:12:37Z</time>
      </trkpt>
      <trkpt lat="43.77176" lon="6.53702">
        <ele>833.6</ele>
        <time>2017-10-29T10:12:43Z</time>
      </trkpt>
      <trkpt lat="43.77169" lon="6.53692">
        <ele>833.6</ele>
        <time>2017-10-29T10:12:49Z</time>
      </trkpt>
      <trkpt lat="43.77163" lon="6.53683">
        <ele>833.4</ele>
        <time>2017-10-29T10:12:57Z</time>
      </trkpt>
      <trkpt lat="43.77157" lon="6.53673">
        <ele>833</ele>
        <time>2017-10-29T10:13:05Z</time>
      </trkpt>
      <trkpt lat="43.7715" lon="6.53663">
        <ele>832.9</ele>
        <time>2017-10-29T10:13:14Z</time>
      </trkpt>
      <trkpt lat="43.77143" lon="6.53653">
        <ele>832.8</ele>
        <time>2017-10-29T10:13:25Z</time>
      </trkpt>
      <trkpt lat="43.77142" lon="6.5364">
        <ele>833.1</ele>
        <time>2017-10-29T10:13:35Z</time>
      </trkpt>
      <trkpt lat="43.7714" lon="6.53627">
        <ele>833.3</ele>
        <time>2017-10-29T10:13:44Z</time>
      </trkpt>
      <trkpt lat="43.77141" lon="6.53614">
        <ele>833.4</ele>
        <time>2017-10-29T10:13:52Z</time>
      </trkpt>
      <trkpt lat="43.77139" lon="6.53601">
        <ele>833.4</ele>
        <time>2017-10-29T10:14:00Z</time>
      </trkpt>
      <trkpt lat="43.77141" lon="6.53588">
        <ele>833.6</ele>
        <time>2017-10-29T10:14:07Z</time>
      </trkpt>
      <trkpt lat="43.77137" lon="6.53576">
        <ele>833.8</ele>
        <time>2017-10-29T10:14:16Z</time>
      </trkpt>
      <trkpt lat="43.77136" lon="6.53563">
        <ele>833.9</ele>
        <time>2017-10-29T10:14:25Z</time>
      </trkpt>
      <trkpt lat="43.77128" lon="6.53557">
        <ele>833.9</ele>
        <time>2017-10-29T10:14:29Z</time>
      </trkpt>
      <trkpt lat="43.77123" lon="6.53545">
        <ele>833.9</ele>
        <time>2017-10-29T10:14:38Z</time>
      </trkpt>
      <trkpt lat="43.77116" lon="6.53536">
        <ele>833.9</ele>
        <time>2017-10-29T10:14:48Z</time>
      </trkpt>
      <trkpt lat="43.77107" lon="6.53529">
        <ele>833.9</ele>
        <time>2017-10-29T10:14:57Z</time>
      </trkpt>
      <trkpt lat="43.77098" lon="6.53523">
        <ele>833.9</ele>
        <time>2017-10-29T10:15:04Z</time>
      </trkpt>
      <trkpt lat="43.77088" lon="6.53518">
        <ele>833.9</ele>
        <time>2017-10-29T10:15:11Z</time>
      </trkpt>
      <trkpt lat="43.7708" lon="6.53512">
        <ele>833.7</ele>
        <time>2017-10-29T10:15:18Z</time>
      </trkpt>
      <trkpt lat="43.77071" lon="6.53508">
        <ele>833.6</ele>
        <time>2017-10-29T10:15:25Z</time>
      </trkpt>
      <trkpt lat="43.7706" lon="6.53503">
        <ele>833.8</ele>
        <time>2017-10-29T10:15:32Z</time>
      </trkpt>
      <trkpt lat="43.77052" lon="6.535">
        <ele>833.8</ele>
        <time>2017-10-29T10:15:37Z</time>
      </trkpt>
      <trkpt lat="43.77042" lon="6.53501">
        <ele>833.9</ele>
        <time>2017-10-29T10:15:45Z</time>
      </trkpt>
      <trkpt lat="43.77033" lon="6.53506">
        <ele>834.4</ele>
        <time>2017-10-29T10:15:57Z</time>
      </trkpt>
      <trkpt lat="43.77024" lon="6.53507">
        <ele>834.9</ele>
        <time>2017-10-29T10:16:11Z</time>
      </trkpt>
      <trkpt lat="43.77014" lon="6.53508">
        <ele>835.4</ele>
        <time>2017-10-29T10:16:28Z</time>
      </trkpt>
      <trkpt lat="43.77005" lon="6.53504">
        <ele>836</ele>
        <time>2017-10-29T10:16:41Z</time>
      </trkpt>
      <trkpt lat="43.76996" lon="6.53501">
        <ele>836.4</ele>
        <time>2017-10-29T10:16:48Z</time>
      </trkpt>
      <trkpt lat="43.76985" lon="6.53499">
        <ele>836.6</ele>
        <time>2017-10-29T10:16:55Z</time>
      </trkpt>
      <trkpt lat="43.76976" lon="6.53499">
        <ele>836.9</ele>
        <time>2017-10-29T10:17:03Z</time>
      </trkpt>
      <trkpt lat="43.76968" lon="6.53504">
        <ele>837.6</ele>
        <time>2017-10-29T10:17:13Z</time>
      </trkpt>
      <trkpt lat="43.76959" lon="6.5351">
        <ele>838.7</ele>
        <time>2017-10-29T10:17:24Z</time>
      </trkpt>
      <trkpt lat="43.7695" lon="6.53512">
        <ele>840.2</ele>
        <time>2017-10-29T10:17:42Z</time>
      </trkpt>
      <trkpt lat="43.76944" lon="6.53503">
        <ele>841.8</ele>
        <time>2017-10-29T10:18:06Z</time>
      </trkpt>
      <trkpt lat="43.76937" lon="6.53494">
        <ele>843.6</ele>
        <time>2017-10-29T10:18:25Z</time>
      </trkpt>
      <trkpt lat="43.7693" lon="6.53485">
        <ele>845.1</ele>
        <time>2017-10-29T10:18:36Z</time>
      </trkpt>
      <trkpt lat="43.76922" lon="6.53477">
        <ele>846.4</ele>
        <time>2017-10-29T10:18:47Z</time>
      </trkpt>
      <trkpt lat="43.76916" lon="6.53467">
        <ele>847.6</ele>
        <time>2017-10-29T10:18:58Z</time>
      </trkpt>
      <trkpt lat="43.7691" lon="6.53457">
        <ele>849.2</ele>
        <time>2017-10-29T10:19:12Z</time>
      </trkpt>
      <trkpt lat="43.76906" lon="6.53445">
        <ele>850.2</ele>
        <time>2017-10-29T10:19:24Z</time>
      </trkpt>
      <trkpt lat="43.76906" lon="6.53432">
        <ele>850.6</ele>
        <time>2017-10-29T10:19:32Z</time>
      </trkpt>
      <trkpt lat="43.76905" lon="6.5342">
        <ele>851.2</ele>
        <time>2017-10-29T10:19:42Z</time>
      </trkpt>
      <trkpt lat="43.76906" lon="6.53407">
        <ele>852.1</ele>
        <time>2017-10-29T10:19:53Z</time>
      </trkpt>
      <trkpt lat="43.76904" lon="6.53393">
        <ele>853</ele>
        <time>2017-10-29T10:20:04Z</time>
      </trkpt>
      <trkpt lat="43.76897" lon="6.53385">
        <ele>854</ele>
        <time>2017-10-29T10:20:13Z</time>
      </trkpt>
      <trkpt lat="43.7689" lon="6.53394">
        <ele>855.6</ele>
        <time>2017-10-29T10:20:26Z</time>
      </trkpt>
      <trkpt lat="43.76886" lon="6.53406">
        <ele>856.6</ele>
        <time>2017-10-29T10:20:35Z</time>
      </trkpt>
      <trkpt lat="43.76885" lon="6.53418">
        <ele>857.3</ele>
        <time>2017-10-29T10:20:44Z</time>
      </trkpt>
      <trkpt lat="43.76883" lon="6.53431">
        <ele>857.9</ele>
        <time>2017-10-29T10:20:53Z</time>
      </trkpt>
      <trkpt lat="43.76883" lon="6.53444">
        <ele>858.5</ele>
        <time>2017-10-29T10:21:02Z</time>
      </trkpt>
      <trkpt lat="43.76884" lon="6.53458">
        <ele>859.2</ele>
        <time>2017-10-29T10:21:11Z</time>
      </trkpt>
      <trkpt lat="43.76885" lon="6.53472">
        <ele>859.8</ele>
        <time>2017-10-29T10:21:21Z</time>
      </trkpt>
      <trkpt lat="43.76885" lon="6.53484">
        <ele>860.3</ele>
        <time>2017-10-29T10:21:30Z</time>
      </trkpt>
      <trkpt lat="43.76885" lon="6.53498">
        <ele>860.8</ele>
        <time>2017-10-29T10:21:39Z</time>
      </trkpt>
      <trkpt lat="43.76884" lon="6.53511">
        <ele>861.2</ele>
        <time>2017-10-29T10:21:49Z</time>
      </trkpt>
      <trkpt lat="43.76881" lon="6.53523">
        <ele>861.6</ele>
        <time>2017-10-29T10:21:58Z</time>
      </trkpt>
      <trkpt lat="43.76877" lon="6.53536">
        <ele>861.9</ele>
        <time>2017-10-29T10:22:09Z</time>
      </trkpt>
      <trkpt lat="43.76875" lon="6.53549">
        <ele>862.4</ele>
        <time>2017-10-29T10:22:20Z</time>
      </trkpt>
      <trkpt lat="43.76874" lon="6.53563">
        <ele>863.2</ele>
        <time>2017-10-29T10:22:30Z</time>
      </trkpt>
      <trkpt lat="43.76873" lon="6.53575">
        <ele>863.8</ele>
        <time>2017-10-29T10:22:39Z</time>
      </trkpt>
      <trkpt lat="43.76873" lon="6.53589">
        <ele>864.5</ele>
        <time>2017-10-29T10:22:49Z</time>
      </trkpt>
      <trkpt lat="43.76875" lon="6.53601">
        <ele>865</ele>
        <time>2017-10-29T10:22:59Z</time>
      </trkpt>
      <trkpt lat="43.76875" lon="6.53614">
        <ele>865.7</ele>
        <time>2017-10-29T10:23:17Z</time>
      </trkpt>
      <trkpt lat="43.76877" lon="6.53626">
        <ele>866</ele>
        <time>2017-10-29T10:23:26Z</time>
      </trkpt>
      <trkpt lat="43.76881" lon="6.53638">
        <ele>866.4</ele>
        <time>2017-10-29T10:23:35Z</time>
      </trkpt>
      <trkpt lat="43.76883" lon="6.53651">
        <ele>866.8</ele>
        <time>2017-10-29T10:23:45Z</time>
      </trkpt>
      <trkpt lat="43.76888" lon="6.53663">
        <ele>867.7</ele>
        <time>2017-10-29T10:23:54Z</time>
      </trkpt>
      <trkpt lat="43.76894" lon="6.53673">
        <ele>868.2</ele>
        <time>2017-10-29T10:24:03Z</time>
      </trkpt>
      <trkpt lat="43.76899" lon="6.53684">
        <ele>869.2</ele>
        <time>2017-10-29T10:24:16Z</time>
      </trkpt>
      <trkpt lat="43.76894" lon="6.53673">
        <ele>871.2</ele>
        <time>2017-10-29T10:24:54Z</time>
      </trkpt>
      <trkpt lat="43.76887" lon="6.53663">
        <ele>872.3</ele>
        <time>2017-10-29T10:25:03Z</time>
      </trkpt>
      <trkpt lat="43.76881" lon="6.53654">
        <ele>873</ele>
        <time>2017-10-29T10:25:12Z</time>
      </trkpt>
      <trkpt lat="43.76873" lon="6.53645">
        <ele>873.5</ele>
        <time>2017-10-29T10:25:21Z</time>
      </trkpt>
      <trkpt lat="43.76866" lon="6.53635">
        <ele>873.9</ele>
        <time>2017-10-29T10:25:30Z</time>
      </trkpt>
      <trkpt lat="43.76862" lon="6.53622">
        <ele>874.7</ele>
        <time>2017-10-29T10:25:39Z</time>
      </trkpt>
      <trkpt lat="43.76858" lon="6.5361">
        <ele>875.3</ele>
        <time>2017-10-29T10:25:47Z</time>
      </trkpt>
      <trkpt lat="43.76856" lon="6.53597">
        <ele>876</ele>
        <time>2017-10-29T10:25:55Z</time>
      </trkpt>
      <trkpt lat="43.76853" lon="6.53585">
        <ele>876.6</ele>
        <time>2017-10-29T10:26:03Z</time>
      </trkpt>
      <trkpt lat="43.76851" lon="6.53572">
        <ele>877.2</ele>
        <time>2017-10-29T10:26:12Z</time>
      </trkpt>
      <trkpt lat="43.76851" lon="6.53558">
        <ele>877.7</ele>
        <time>2017-10-29T10:26:22Z</time>
      </trkpt>
      <trkpt lat="43.76851" lon="6.53545">
        <ele>878.2</ele>
        <time>2017-10-29T10:26:31Z</time>
      </trkpt>
      <trkpt lat="43.76851" lon="6.53533">
        <ele>878.7</ele>
        <time>2017-10-29T10:26:39Z</time>
      </trkpt>
      <trkpt lat="43.76852" lon="6.5352">
        <ele>879.2</ele>
        <time>2017-10-29T10:26:47Z</time>
      </trkpt>
      <trkpt lat="43.76854" lon="6.53507">
        <ele>879.7</ele>
        <time>2017-10-29T10:26:56Z</time>
      </trkpt>
      <trkpt lat="43.76854" lon="6.53494">
        <ele>880.4</ele>
        <time>2017-10-29T10:27:05Z</time>
      </trkpt>
      <trkpt lat="43.7685" lon="6.53482">
        <ele>881.1</ele>
        <time>2017-10-29T10:27:16Z</time>
      </trkpt>
      <trkpt lat="43.76851" lon="6.53469">
        <ele>882.3</ele>
        <time>2017-10-29T10:27:33Z</time>
      </trkpt>
      <trkpt lat="43.76848" lon="6.53456">
        <ele>883.8</ele>
        <time>2017-10-29T10:28:00Z</time>
      </trkpt>
      <trkpt lat="43.76847" lon="6.53443">
        <ele>884.7</ele>
        <time>2017-10-29T10:28:11Z</time>
      </trkpt>
      <trkpt lat="43.76847" lon="6.5343">
        <ele>886.3</ele>
        <time>2017-10-29T10:28:27Z</time>
      </trkpt>
      <trkpt lat="43.76846" lon="6.53417">
        <ele>887.5</ele>
        <time>2017-10-29T10:28:40Z</time>
      </trkpt>
      <trkpt lat="43.76846" lon="6.53404">
        <ele>889</ele>
        <time>2017-10-29T10:28:51Z</time>
      </trkpt>
      <trkpt lat="43.76846" lon="6.53391">
        <ele>891.2</ele>
        <time>2017-10-29T10:29:10Z</time>
      </trkpt>
      <trkpt lat="43.76845" lon="6.53378">
        <ele>892.1</ele>
        <time>2017-10-29T10:29:19Z</time>
      </trkpt>
      <trkpt lat="43.76843" lon="6.53365">
        <ele>893.4</ele>
        <time>2017-10-29T10:29:30Z</time>
      </trkpt>
      <trkpt lat="43.76834" lon="6.53366">
        <ele>895.5</ele>
        <time>2017-10-29T10:29:50Z</time>
      </trkpt>
      <trkpt lat="43.76826" lon="6.53358">
        <ele>899.1</ele>
        <time>2017-10-29T10:30:19Z</time>
      </trkpt>
      <trkpt lat="43.7682" lon="6.5335">
        <ele>901.9</ele>
        <time>2017-10-29T10:30:40Z</time>
      </trkpt>
      <trkpt lat="43.76821" lon="6.53337">
        <ele>903.4</ele>
        <time>2017-10-29T10:30:54Z</time>
      </trkpt>
      <trkpt lat="43.76815" lon="6.53326">
        <ele>904.8</ele>
        <time>2017-10-29T10:31:24Z</time>
      </trkpt>
      <trkpt lat="43.76816" lon="6.53314">
        <ele>905.2</ele>
        <time>2017-10-29T10:31:35Z</time>
      </trkpt>
      <trkpt lat="43.76816" lon="6.533">
        <ele>906.3</ele>
        <time>2017-10-29T10:31:48Z</time>
      </trkpt>
      <trkpt lat="43.76811" lon="6.53289">
        <ele>907.4</ele>
        <time>2017-10-29T10:31:59Z</time>
      </trkpt>
      <trkpt lat="43.7681" lon="6.53277">
        <ele>908.6</ele>
        <time>2017-10-29T10:32:10Z</time>
      </trkpt>
      <trkpt lat="43.76811" lon="6.53263">
        <ele>909.6</ele>
        <time>2017-10-29T10:32:21Z</time>
      </trkpt>
      <trkpt lat="43.7681" lon="6.5325">
        <ele>910.2</ele>
        <time>2017-10-29T10:32:32Z</time>
      </trkpt>
      <trkpt lat="43.76805" lon="6.53239">
        <ele>910.9</ele>
        <time>2017-10-29T10:32:43Z</time>
      </trkpt>
      <trkpt lat="43.768" lon="6.53229">
        <ele>912.7</ele>
        <time>2017-10-29T10:33:15Z</time>
      </trkpt>
      <trkpt lat="43.768" lon="6.53216">
        <ele>912.9</ele>
        <time>2017-10-29T10:33:28Z</time>
      </trkpt>
      <trkpt lat="43.76797" lon="6.53204">
        <ele>913.4</ele>
        <time>2017-10-29T10:33:37Z</time>
      </trkpt>
      <trkpt lat="43.7679" lon="6.53195">
        <ele>914</ele>
        <time>2017-10-29T10:33:47Z</time>
      </trkpt>
      <trkpt lat="43.76787" lon="6.53183">
        <ele>914.4</ele>
        <time>2017-10-29T10:34:03Z</time>
      </trkpt>
      <trkpt lat="43.76779" lon="6.53192">
        <ele>915.1</ele>
        <time>2017-10-29T10:34:18Z</time>
      </trkpt>
      <trkpt lat="43.76775" lon="6.53203">
        <ele>916.2</ele>
        <time>2017-10-29T10:34:30Z</time>
      </trkpt>
      <trkpt lat="43.76766" lon="6.532">
        <ele>917.7</ele>
        <time>2017-10-29T10:34:44Z</time>
      </trkpt>
      <trkpt lat="43.76757" lon="6.53202">
        <ele>918.8</ele>
        <time>2017-10-29T10:34:54Z</time>
      </trkpt>
      <trkpt lat="43.76748" lon="6.53206">
        <ele>920</ele>
        <time>2017-10-29T10:35:05Z</time>
      </trkpt>
      <trkpt lat="43.7674" lon="6.53213">
        <ele>921.5</ele>
        <time>2017-10-29T10:35:16Z</time>
      </trkpt>
      <trkpt lat="43.76731" lon="6.53219">
        <ele>923.3</ele>
        <time>2017-10-29T10:35:31Z</time>
      </trkpt>
      <trkpt lat="43.76723" lon="6.53222">
        <ele>926.8</ele>
        <time>2017-10-29T10:35:59Z</time>
      </trkpt>
      <trkpt lat="43.76718" lon="6.53211">
        <ele>929.5</ele>
        <time>2017-10-29T10:36:19Z</time>
      </trkpt>
      <trkpt lat="43.7672" lon="6.53198">
        <ele>930.3</ele>
        <time>2017-10-29T10:36:42Z</time>
      </trkpt>
      <trkpt lat="43.76714" lon="6.53188">
        <ele>930.1</ele>
        <time>2017-10-29T10:36:55Z</time>
      </trkpt>
      <trkpt lat="43.76708" lon="6.53179">
        <ele>930.7</ele>
        <time>2017-10-29T10:37:18Z</time>
      </trkpt>
      <trkpt lat="43.767" lon="6.53172">
        <ele>931.4</ele>
        <time>2017-10-29T10:38:34Z</time>
      </trkpt>
      <trkpt lat="43.76697" lon="6.5316">
        <ele>931.5</ele>
        <time>2017-10-29T10:39:04Z</time>
      </trkpt>
      <trkpt lat="43.76692" lon="6.53149">
        <ele>932.4</ele>
        <time>2017-10-29T10:39:15Z</time>
      </trkpt>
      <trkpt lat="43.76688" lon="6.53138">
        <ele>933.7</ele>
        <time>2017-10-29T10:39:30Z</time>
      </trkpt>
      <trkpt lat="43.76681" lon="6.53129">
        <ele>934.6</ele>
        <time>2017-10-29T10:39:40Z</time>
      </trkpt>
      <trkpt lat="43.76677" lon="6.53117">
        <ele>935.2</ele>
        <time>2017-10-29T10:39:50Z</time>
      </trkpt>
      <trkpt lat="43.76674" lon="6.53105">
        <ele>935.9</ele>
        <time>2017-10-29T10:40:00Z</time>
      </trkpt>
      <trkpt lat="43.76669" lon="6.53094">
        <ele>936.4</ele>
        <time>2017-10-29T10:40:11Z</time>
      </trkpt>
      <trkpt lat="43.76665" lon="6.53082">
        <ele>937.3</ele>
        <time>2017-10-29T10:40:21Z</time>
      </trkpt>
      <trkpt lat="43.7666" lon="6.53071">
        <ele>938.2</ele>
        <time>2017-10-29T10:40:31Z</time>
      </trkpt>
      <trkpt lat="43.76657" lon="6.53059">
        <ele>938.9</ele>
        <time>2017-10-29T10:40:41Z</time>
      </trkpt>
      <trkpt lat="43.76652" lon="6.53048">
        <ele>940.7</ele>
        <time>2017-10-29T10:40:56Z</time>
      </trkpt>
      <trkpt lat="43.76644" lon="6.5304">
        <ele>942.1</ele>
        <time>2017-10-29T10:41:11Z</time>
      </trkpt>
      <trkpt lat="43.76636" lon="6.53033">
        <ele>945</ele>
        <time>2017-10-29T10:41:31Z</time>
      </trkpt>
      <trkpt lat="43.7663" lon="6.53023">
        <ele>947.2</ele>
        <time>2017-10-29T10:41:47Z</time>
      </trkpt>
      <trkpt lat="43.76624" lon="6.53014">
        <ele>949.1</ele>
        <time>2017-10-29T10:42:02Z</time>
      </trkpt>
      <trkpt lat="43.76619" lon="6.53003">
        <ele>952.1</ele>
        <time>2017-10-29T10:42:19Z</time>
      </trkpt>
      <trkpt lat="43.76611" lon="6.53011">
        <ele>956.6</ele>
        <time>2017-10-29T10:42:54Z</time>
      </trkpt>
      <trkpt lat="43.76604" lon="6.53003">
        <ele>960.1</ele>
        <time>2017-10-29T10:43:24Z</time>
      </trkpt>
      <trkpt lat="43.766" lon="6.5299">
        <ele>961.7</ele>
        <time>2017-10-29T10:43:38Z</time>
      </trkpt>
      <trkpt lat="43.76598" lon="6.52977">
        <ele>962.8</ele>
        <time>2017-10-29T10:43:48Z</time>
      </trkpt>
      <trkpt lat="43.76593" lon="6.52966">
        <ele>963.9</ele>
        <time>2017-10-29T10:43:59Z</time>
      </trkpt>
      <trkpt lat="43.76589" lon="6.52954">
        <ele>965.8</ele>
        <time>2017-10-29T10:44:18Z</time>
      </trkpt>
      <trkpt lat="43.76586" lon="6.52943">
        <ele>967.2</ele>
        <time>2017-10-29T10:44:31Z</time>
      </trkpt>
      <trkpt lat="43.76583" lon="6.5293">
        <ele>969.1</ele>
        <time>2017-10-29T10:44:48Z</time>
      </trkpt>
      <trkpt lat="43.76579" lon="6.52919">
        <ele>970.5</ele>
        <time>2017-10-29T10:45:04Z</time>
      </trkpt>
      <trkpt lat="43.76578" lon="6.52906">
        <ele>971.5</ele>
        <time>2017-10-29T10:45:17Z</time>
      </trkpt>
      <trkpt lat="43.76575" lon="6.52894">
        <ele>972.3</ele>
        <time>2017-10-29T10:45:31Z</time>
      </trkpt>
      <trkpt lat="43.76569" lon="6.52885">
        <ele>973.5</ele>
        <time>2017-10-29T10:45:46Z</time>
      </trkpt>
      <trkpt lat="43.76563" lon="6.52875">
        <ele>975.6</ele>
        <time>2017-10-29T10:46:04Z</time>
      </trkpt>
      <trkpt lat="43.76558" lon="6.52865">
        <ele>977.7</ele>
        <time>2017-10-29T10:46:19Z</time>
      </trkpt>
      <trkpt lat="43.76551" lon="6.52857">
        <ele>980.3</ele>
        <time>2017-10-29T10:46:38Z</time>
      </trkpt>
      <trkpt lat="43.76545" lon="6.52846">
        <ele>982.6</ele>
        <time>2017-10-29T10:46:54Z</time>
      </trkpt>
      <trkpt lat="43.76542" lon="6.52834">
        <ele>984.1</ele>
        <time>2017-10-29T10:47:07Z</time>
      </trkpt>
      <trkpt lat="43.76537" lon="6.52823">
        <ele>985.4</ele>
        <time>2017-10-29T10:47:19Z</time>
      </trkpt>
      <trkpt lat="43.76531" lon="6.52813">
        <ele>986.5</ele>
        <time>2017-10-29T10:47:32Z</time>
      </trkpt>
      <trkpt lat="43.76522" lon="6.52808">
        <ele>988</ele>
        <time>2017-10-29T10:47:48Z</time>
      </trkpt>
      <trkpt lat="43.76518" lon="6.5282">
        <ele>989.9</ele>
        <time>2017-10-29T10:48:09Z</time>
      </trkpt>
      <trkpt lat="43.76515" lon="6.52832">
        <ele>991.5</ele>
        <time>2017-10-29T10:48:25Z</time>
      </trkpt>
      <trkpt lat="43.76514" lon="6.52845">
        <ele>996</ele>
        <time>2017-10-29T10:50:50Z</time>
      </trkpt>
      <trkpt lat="43.76512" lon="6.52858">
        <ele>996.1</ele>
        <time>2017-10-29T10:51:07Z</time>
      </trkpt>
      <trkpt lat="43.76511" lon="6.52871">
        <ele>996.9</ele>
        <time>2017-10-29T10:51:18Z</time>
      </trkpt>
      <trkpt lat="43.76503" lon="6.52879">
        <ele>998.3</ele>
        <time>2017-10-29T10:51:31Z</time>
      </trkpt>
      <trkpt lat="43.765" lon="6.52891">
        <ele>1000.2</ele>
        <time>2017-10-29T10:51:42Z</time>
      </trkpt>
      <trkpt lat="43.76495" lon="6.52901">
        <ele>1002.3</ele>
        <time>2017-10-29T10:52:02Z</time>
      </trkpt>
      <trkpt lat="43.76493" lon="6.52914">
        <ele>1003.6</ele>
        <time>2017-10-29T10:52:14Z</time>
      </trkpt>
      <trkpt lat="43.76488" lon="6.52925">
        <ele>1004.9</ele>
        <time>2017-10-29T10:52:27Z</time>
      </trkpt>
      <trkpt lat="43.76488" lon="6.52938">
        <ele>1005.9</ele>
        <time>2017-10-29T10:52:42Z</time>
      </trkpt>
      <trkpt lat="43.76485" lon="6.5295">
        <ele>1007.6</ele>
        <time>2017-10-29T10:53:08Z</time>
      </trkpt>
      <trkpt lat="43.76479" lon="6.52961">
        <ele>1009.7</ele>
        <time>2017-10-29T10:53:32Z</time>
      </trkpt>
      <trkpt lat="43.76475" lon="6.52973">
        <ele>1010</ele>
        <time>2017-10-29T10:53:45Z</time>
      </trkpt>
      <trkpt lat="43.76475" lon="6.52985">
        <ele>1011.1</ele>
        <time>2017-10-29T10:53:58Z</time>
      </trkpt>
      <trkpt lat="43.76475" lon="6.52998">
        <ele>1012</ele>
        <time>2017-10-29T10:54:08Z</time>
      </trkpt>
      <trkpt lat="43.76469" lon="6.53007">
        <ele>1013.7</ele>
        <time>2017-10-29T10:54:24Z</time>
      </trkpt>
      <trkpt lat="43.76461" lon="6.53">
        <ele>1016.2</ele>
        <time>2017-10-29T10:54:41Z</time>
      </trkpt>
      <trkpt lat="43.76452" lon="6.52996">
        <ele>1017.5</ele>
        <time>2017-10-29T10:54:55Z</time>
      </trkpt>
      <trkpt lat="43.76445" lon="6.52986">
        <ele>1019.5</ele>
        <time>2017-10-29T10:55:13Z</time>
      </trkpt>
      <trkpt lat="43.76439" lon="6.52977">
        <ele>1019.8</ele>
        <time>2017-10-29T10:55:24Z</time>
      </trkpt>
      <trkpt lat="43.76432" lon="6.52967">
        <ele>1021.1</ele>
        <time>2017-10-29T10:55:35Z</time>
      </trkpt>
      <trkpt lat="43.76426" lon="6.52957">
        <ele>1022.1</ele>
        <time>2017-10-29T10:55:49Z</time>
      </trkpt>
      <trkpt lat="43.76422" lon="6.52946">
        <ele>1023.6</ele>
        <time>2017-10-29T10:56:25Z</time>
      </trkpt>
      <trkpt lat="43.76416" lon="6.52936">
        <ele>1023.7</ele>
        <time>2017-10-29T10:56:35Z</time>
      </trkpt>
      <trkpt lat="43.76409" lon="6.52928">
        <ele>1024.5</ele>
        <time>2017-10-29T10:56:44Z</time>
      </trkpt>
      <trkpt lat="43.76402" lon="6.52919">
        <ele>1025.5</ele>
        <time>2017-10-29T10:56:56Z</time>
      </trkpt>
      <trkpt lat="43.76397" lon="6.52909">
        <ele>1028</ele>
        <time>2017-10-29T10:57:51Z</time>
      </trkpt>
      <trkpt lat="43.7639" lon="6.52901">
        <ele>1028.5</ele>
        <time>2017-10-29T10:58:17Z</time>
      </trkpt>
      <trkpt lat="43.76384" lon="6.52891">
        <ele>1029.9</ele>
        <time>2017-10-29T10:58:31Z</time>
      </trkpt>
      <trkpt lat="43.76379" lon="6.52879">
        <ele>1031.6</ele>
        <time>2017-10-29T10:58:47Z</time>
      </trkpt>
      <trkpt lat="43.76372" lon="6.5287">
        <ele>1032.6</ele>
        <time>2017-10-29T10:59:00Z</time>
      </trkpt>
      <trkpt lat="43.76366" lon="6.5286">
        <ele>1033.1</ele>
        <time>2017-10-29T10:59:12Z</time>
      </trkpt>
      <trkpt lat="43.76359" lon="6.52852">
        <ele>1034.4</ele>
        <time>2017-10-29T10:59:29Z</time>
      </trkpt>
      <trkpt lat="43.76355" lon="6.5284">
        <ele>1035.8</ele>
        <time>2017-10-29T10:59:42Z</time>
      </trkpt>
      <trkpt lat="43.76348" lon="6.52829">
        <ele>1037.8</ele>
        <time>2017-10-29T11:00:05Z</time>
      </trkpt>
      <trkpt lat="43.76343" lon="6.52818">
        <ele>1039.6</ele>
        <time>2017-10-29T11:00:17Z</time>
      </trkpt>
      <trkpt lat="43.76338" lon="6.52807">
        <ele>1041.7</ele>
        <time>2017-10-29T11:00:35Z</time>
      </trkpt>
      <trkpt lat="43.76334" lon="6.52796">
        <ele>1044.1</ele>
        <time>2017-10-29T11:00:52Z</time>
      </trkpt>
      <trkpt lat="43.7633" lon="6.52784">
        <ele>1045.4</ele>
        <time>2017-10-29T11:01:08Z</time>
      </trkpt>
      <trkpt lat="43.76323" lon="6.52777">
        <ele>1047.5</ele>
        <time>2017-10-29T11:01:26Z</time>
      </trkpt>
      <trkpt lat="43.76314" lon="6.52776">
        <ele>1051.1</ele>
        <time>2017-10-29T11:01:55Z</time>
      </trkpt>
      <trkpt lat="43.76307" lon="6.52767">
        <ele>1054.5</ele>
        <time>2017-10-29T11:02:18Z</time>
      </trkpt>
      <trkpt lat="43.76298" lon="6.52768">
        <ele>1058</ele>
        <time>2017-10-29T11:02:43Z</time>
      </trkpt>
      <trkpt lat="43.76293" lon="6.52779">
        <ele>1059.3</ele>
        <time>2017-10-29T11:02:57Z</time>
      </trkpt>
      <trkpt lat="43.76289" lon="6.52792">
        <ele>1061.9</ele>
        <time>2017-10-29T11:03:15Z</time>
      </trkpt>
      <trkpt lat="43.76283" lon="6.52801">
        <ele>1064.7</ele>
        <time>2017-10-29T11:03:48Z</time>
      </trkpt>
      <trkpt lat="43.76279" lon="6.52812">
        <ele>1066.8</ele>
        <time>2017-10-29T11:04:10Z</time>
      </trkpt>
      <trkpt lat="43.76288" lon="6.52816">
        <ele>1067.4</ele>
        <time>2017-10-29T11:04:28Z</time>
      </trkpt>
      <trkpt lat="43.76279" lon="6.52811">
        <ele>1066.6</ele>
        <time>2017-10-29T11:06:07Z</time>
      </trkpt>
      <trkpt lat="43.76273" lon="6.5282">
        <ele>1068.1</ele>
        <time>2017-10-29T11:08:31Z</time>
      </trkpt>
      <trkpt lat="43.7627" lon="6.52833">
        <ele>1068.8</ele>
        <time>2017-10-29T11:08:45Z</time>
      </trkpt>
      <trkpt lat="43.76264" lon="6.52824">
        <ele>1071</ele>
        <time>2017-10-29T11:09:12Z</time>
      </trkpt>
      <trkpt lat="43.76255" lon="6.5283">
        <ele>1073.3</ele>
        <time>2017-10-29T11:09:30Z</time>
      </trkpt>
      <trkpt lat="43.76247" lon="6.52826">
        <ele>1077.5</ele>
        <time>2017-10-29T11:10:13Z</time>
      </trkpt>
      <trkpt lat="43.76238" lon="6.5282">
        <ele>1080.3</ele>
        <time>2017-10-29T11:10:35Z</time>
      </trkpt>
      <trkpt lat="43.76229" lon="6.52822">
        <ele>1083.2</ele>
        <time>2017-10-29T11:10:56Z</time>
      </trkpt>
      <trkpt lat="43.76222" lon="6.52831">
        <ele>1084.7</ele>
        <time>2017-10-29T11:11:10Z</time>
      </trkpt>
      <trkpt lat="43.76216" lon="6.5284">
        <ele>1087.1</ele>
        <time>2017-10-29T11:11:29Z</time>
      </trkpt>
      <trkpt lat="43.76207" lon="6.52842">
        <ele>1091.3</ele>
        <time>2017-10-29T11:11:57Z</time>
      </trkpt>
      <trkpt lat="43.76199" lon="6.52849">
        <ele>1094.6</ele>
        <time>2017-10-29T11:12:21Z</time>
      </trkpt>
      <trkpt lat="43.76191" lon="6.52855">
        <ele>1097.4</ele>
        <time>2017-10-29T11:12:41Z</time>
      </trkpt>
      <trkpt lat="43.76182" lon="6.52853">
        <ele>1100.9</ele>
        <time>2017-10-29T11:13:09Z</time>
      </trkpt>
      <trkpt lat="43.76176" lon="6.52843">
        <ele>1103.1</ele>
        <time>2017-10-29T11:13:26Z</time>
      </trkpt>
      <trkpt lat="43.76167" lon="6.52844">
        <ele>1104.9</ele>
        <time>2017-10-29T11:13:43Z</time>
      </trkpt>
      <trkpt lat="43.76164" lon="6.52856">
        <ele>1106.4</ele>
        <time>2017-10-29T11:13:56Z</time>
      </trkpt>
      <trkpt lat="43.76164" lon="6.52869">
        <ele>1107.4</ele>
        <time>2017-10-29T11:14:08Z</time>
      </trkpt>
      <trkpt lat="43.76164" lon="6.52882">
        <ele>1108</ele>
        <time>2017-10-29T11:14:18Z</time>
      </trkpt>
      <trkpt lat="43.76164" lon="6.52895">
        <ele>1109.8</ele>
        <time>2017-10-29T11:14:28Z</time>
      </trkpt>
      <trkpt lat="43.76164" lon="6.52907">
        <ele>1110.9</ele>
        <time>2017-10-29T11:14:41Z</time>
      </trkpt>
      <trkpt lat="43.76164" lon="6.5292">
        <ele>1111.9</ele>
        <time>2017-10-29T11:14:54Z</time>
      </trkpt>
      <trkpt lat="43.76165" lon="6.52933">
        <ele>1113.5</ele>
        <time>2017-10-29T11:15:09Z</time>
      </trkpt>
      <trkpt lat="43.76165" lon="6.52946">
        <ele>1114.2</ele>
        <time>2017-10-29T11:15:21Z</time>
      </trkpt>
      <trkpt lat="43.76166" lon="6.52959">
        <ele>1115.2</ele>
        <time>2017-10-29T11:15:32Z</time>
      </trkpt>
      <trkpt lat="43.76168" lon="6.52972">
        <ele>1116.2</ele>
        <time>2017-10-29T11:15:43Z</time>
      </trkpt>
      <trkpt lat="43.76169" lon="6.52984">
        <ele>1116.7</ele>
        <time>2017-10-29T11:15:53Z</time>
      </trkpt>
      <trkpt lat="43.76168" lon="6.52997">
        <ele>1117.3</ele>
        <time>2017-10-29T11:16:07Z</time>
      </trkpt>
      <trkpt lat="43.76166" lon="6.5301">
        <ele>1119.4</ele>
        <time>2017-10-29T11:16:22Z</time>
      </trkpt>
      <trkpt lat="43.76165" lon="6.53023">
        <ele>1120.7</ele>
        <time>2017-10-29T11:16:35Z</time>
      </trkpt>
      <trkpt lat="43.76164" lon="6.53035">
        <ele>1121.6</ele>
        <time>2017-10-29T11:16:47Z</time>
      </trkpt>
      <trkpt lat="43.76163" lon="6.53048">
        <ele>1122.6</ele>
        <time>2017-10-29T11:16:58Z</time>
      </trkpt>
      <trkpt lat="43.76162" lon="6.53061">
        <ele>1123.6</ele>
        <time>2017-10-29T11:17:12Z</time>
      </trkpt>
      <trkpt lat="43.76161" lon="6.53075">
        <ele>1125.1</ele>
        <time>2017-10-29T11:17:24Z</time>
      </trkpt>
      <trkpt lat="43.76161" lon="6.53088">
        <ele>1126.2</ele>
        <time>2017-10-29T11:17:38Z</time>
      </trkpt>
      <trkpt lat="43.76161" lon="6.531">
        <ele>1126.9</ele>
        <time>2017-10-29T11:17:49Z</time>
      </trkpt>
      <trkpt lat="43.76162" lon="6.53113">
        <ele>1127.6</ele>
        <time>2017-10-29T11:17:59Z</time>
      </trkpt>
      <trkpt lat="43.76162" lon="6.53126">
        <ele>1128.2</ele>
        <time>2017-10-29T11:18:10Z</time>
      </trkpt>
      <trkpt lat="43.76163" lon="6.53138">
        <ele>1129.3</ele>
        <time>2017-10-29T11:18:21Z</time>
      </trkpt>
      <trkpt lat="43.76157" lon="6.53149">
        <ele>1130.7</ele>
        <time>2017-10-29T11:18:32Z</time>
      </trkpt>
      <trkpt lat="43.76154" lon="6.53162">
        <ele>1132.1</ele>
        <time>2017-10-29T11:18:44Z</time>
      </trkpt>
      <trkpt lat="43.76153" lon="6.53174">
        <ele>1132.9</ele>
        <time>2017-10-29T11:18:54Z</time>
      </trkpt>
      <trkpt lat="43.76153" lon="6.53187">
        <ele>1134.6</ele>
        <time>2017-10-29T11:19:15Z</time>
      </trkpt>
      <trkpt lat="43.76149" lon="6.53198">
        <ele>1135.3</ele>
        <time>2017-10-29T11:19:26Z</time>
      </trkpt>
      <trkpt lat="43.76148" lon="6.53212">
        <ele>1136.4</ele>
        <time>2017-10-29T11:19:39Z</time>
      </trkpt>
      <trkpt lat="43.76145" lon="6.53224">
        <ele>1136.8</ele>
        <time>2017-10-29T11:19:49Z</time>
      </trkpt>
      <trkpt lat="43.76144" lon="6.53236">
        <ele>1137.5</ele>
        <time>2017-10-29T11:19:59Z</time>
      </trkpt>
      <trkpt lat="43.76144" lon="6.53249">
        <ele>1138.4</ele>
        <time>2017-10-29T11:20:10Z</time>
      </trkpt>
      <trkpt lat="43.76143" lon="6.53262">
        <ele>1139.1</ele>
        <time>2017-10-29T11:20:20Z</time>
      </trkpt>
      <trkpt lat="43.76141" lon="6.53274">
        <ele>1139.8</ele>
        <time>2017-10-29T11:20:29Z</time>
      </trkpt>
      <trkpt lat="43.76147" lon="6.53285">
        <ele>1140.7</ele>
        <time>2017-10-29T11:20:41Z</time>
      </trkpt>
      <trkpt lat="43.76147" lon="6.53298">
        <ele>1141.6</ele>
        <time>2017-10-29T11:20:52Z</time>
      </trkpt>
      <trkpt lat="43.76147" lon="6.53311">
        <ele>1142.4</ele>
        <time>2017-10-29T11:21:04Z</time>
      </trkpt>
      <trkpt lat="43.76144" lon="6.53324">
        <ele>1143.3</ele>
        <time>2017-10-29T11:21:14Z</time>
      </trkpt>
      <trkpt lat="43.76145" lon="6.53336">
        <ele>1144.2</ele>
        <time>2017-10-29T11:21:24Z</time>
      </trkpt>
      <trkpt lat="43.76143" lon="6.5335">
        <ele>1144.7</ele>
        <time>2017-10-29T11:21:34Z</time>
      </trkpt>
      <trkpt lat="43.76137" lon="6.53359">
        <ele>1145</ele>
        <time>2017-10-29T11:21:49Z</time>
      </trkpt>
      <trkpt lat="43.7613" lon="6.53352">
        <ele>1145.7</ele>
        <time>2017-10-29T11:22:04Z</time>
      </trkpt>
      <trkpt lat="43.76128" lon="6.53339">
        <ele>1146.4</ele>
        <time>2017-10-29T11:22:17Z</time>
      </trkpt>
      <trkpt lat="43.76127" lon="6.53326">
        <ele>1147.6</ele>
        <time>2017-10-29T11:22:30Z</time>
      </trkpt>
      <trkpt lat="43.76124" lon="6.53313">
        <ele>1148.1</ele>
        <time>2017-10-29T11:22:43Z</time>
      </trkpt>
      <trkpt lat="43.76118" lon="6.53323">
        <ele>1150.9</ele>
        <time>2017-10-29T11:23:58Z</time>
      </trkpt>
      <trkpt lat="43.76119" lon="6.53336">
        <ele>1151.8</ele>
        <time>2017-10-29T11:24:12Z</time>
      </trkpt>
      <trkpt lat="43.76117" lon="6.53349">
        <ele>1152.4</ele>
        <time>2017-10-29T11:24:21Z</time>
      </trkpt>
      <trkpt lat="43.76115" lon="6.53362">
        <ele>1153.3</ele>
        <time>2017-10-29T11:24:34Z</time>
      </trkpt>
      <trkpt lat="43.76119" lon="6.53374">
        <ele>1154.2</ele>
        <time>2017-10-29T11:24:48Z</time>
      </trkpt>
      <trkpt lat="43.76117" lon="6.53388">
        <ele>1154.7</ele>
        <time>2017-10-29T11:24:58Z</time>
      </trkpt>
      <trkpt lat="43.76116" lon="6.53401">
        <ele>1155.4</ele>
        <time>2017-10-29T11:25:10Z</time>
      </trkpt>
      <trkpt lat="43.76117" lon="6.53414">
        <ele>1156.4</ele>
        <time>2017-10-29T11:25:28Z</time>
      </trkpt>
      <trkpt lat="43.76114" lon="6.53426">
        <ele>1158.1</ele>
        <time>2017-10-29T11:25:42Z</time>
      </trkpt>
      <trkpt lat="43.76109" lon="6.53437">
        <ele>1159.3</ele>
        <time>2017-10-29T11:25:51Z</time>
      </trkpt>
      <trkpt lat="43.76105" lon="6.53449">
        <ele>1160.5</ele>
        <time>2017-10-29T11:26:06Z</time>
      </trkpt>
      <trkpt lat="43.76102" lon="6.53462">
        <ele>1161.6</ele>
        <time>2017-10-29T11:26:20Z</time>
      </trkpt>
      <trkpt lat="43.761" lon="6.53475">
        <ele>1163.5</ele>
        <time>2017-10-29T11:27:01Z</time>
      </trkpt>
      <trkpt lat="43.76109" lon="6.53477">
        <ele>1163.4</ele>
        <time>2017-10-29T11:27:19Z</time>
      </trkpt>
      <trkpt lat="43.76101" lon="6.53471">
        <ele>1162.7</ele>
        <time>2017-10-29T11:28:12Z</time>
      </trkpt>
      <trkpt lat="43.76097" lon="6.53459">
        <ele>1164</ele>
        <time>2017-10-29T11:28:30Z</time>
      </trkpt>
      <trkpt lat="43.76093" lon="6.53447">
        <ele>1166.3</ele>
        <time>2017-10-29T11:28:47Z</time>
      </trkpt>
      <trkpt lat="43.76091" lon="6.53434">
        <ele>1168.2</ele>
        <time>2017-10-29T11:29:04Z</time>
      </trkpt>
      <trkpt lat="43.7609" lon="6.53422">
        <ele>1169.9</ele>
        <time>2017-10-29T11:29:17Z</time>
      </trkpt>
      <trkpt lat="43.76087" lon="6.53409">
        <ele>1172.2</ele>
        <time>2017-10-29T11:29:37Z</time>
      </trkpt>
      <trkpt lat="43.76081" lon="6.53399">
        <ele>1173.6</ele>
        <time>2017-10-29T11:29:52Z</time>
      </trkpt>
      <trkpt lat="43.76077" lon="6.53388">
        <ele>1175.4</ele>
        <time>2017-10-29T11:30:11Z</time>
      </trkpt>
      <trkpt lat="43.76069" lon="6.53379">
        <ele>1177.8</ele>
        <time>2017-10-29T11:30:29Z</time>
      </trkpt>
      <trkpt lat="43.76065" lon="6.53368">
        <ele>1178.6</ele>
        <time>2017-10-29T11:30:44Z</time>
      </trkpt>
      <trkpt lat="43.76063" lon="6.53354">
        <ele>1178.1</ele>
        <time>2017-10-29T11:30:55Z</time>
      </trkpt>
      <trkpt lat="43.76059" lon="6.53343">
        <ele>1178.7</ele>
        <time>2017-10-29T11:31:05Z</time>
      </trkpt>
      <trkpt lat="43.76054" lon="6.53332">
        <ele>1178.9</ele>
        <time>2017-10-29T11:31:20Z</time>
      </trkpt>
      <trkpt lat="43.76048" lon="6.53323">
        <ele>1179.4</ele>
        <time>2017-10-29T11:31:31Z</time>
      </trkpt>
      <trkpt lat="43.76043" lon="6.53312">
        <ele>1180.1</ele>
        <time>2017-10-29T11:31:44Z</time>
      </trkpt>
      <trkpt lat="43.76041" lon="6.533">
        <ele>1181.5</ele>
        <time>2017-10-29T11:32:00Z</time>
      </trkpt>
      <trkpt lat="43.76038" lon="6.53287">
        <ele>1182.1</ele>
        <time>2017-10-29T11:32:11Z</time>
      </trkpt>
      <trkpt lat="43.76035" lon="6.53275">
        <ele>1183.2</ele>
        <time>2017-10-29T11:32:25Z</time>
      </trkpt>
      <trkpt lat="43.76031" lon="6.53264">
        <ele>1184</ele>
        <time>2017-10-29T11:32:39Z</time>
      </trkpt>
      <trkpt lat="43.76025" lon="6.53254">
        <ele>1185.7</ele>
        <time>2017-10-29T11:32:58Z</time>
      </trkpt>
      <trkpt lat="43.76019" lon="6.53244">
        <ele>1187</ele>
        <time>2017-10-29T11:33:10Z</time>
      </trkpt>
      <trkpt lat="43.76013" lon="6.53234">
        <ele>1189.1</ele>
        <time>2017-10-29T11:33:28Z</time>
      </trkpt>
      <trkpt lat="43.7601" lon="6.53223">
        <ele>1190.5</ele>
        <time>2017-10-29T11:33:42Z</time>
      </trkpt>
      <trkpt lat="43.76003" lon="6.53214">
        <ele>1192.3</ele>
        <time>2017-10-29T11:34:00Z</time>
      </trkpt>
      <trkpt lat="43.75994" lon="6.53209">
        <ele>1195.1</ele>
        <time>2017-10-29T11:34:20Z</time>
      </trkpt>
      <trkpt lat="43.75985" lon="6.53212">
        <ele>1196.4</ele>
        <time>2017-10-29T11:34:32Z</time>
      </trkpt>
      <trkpt lat="43.75976" lon="6.53214">
        <ele>1198.2</ele>
        <time>2017-10-29T11:34:48Z</time>
      </trkpt>
      <trkpt lat="43.75971" lon="6.53203">
        <ele>1199.9</ele>
        <time>2017-10-29T11:35:03Z</time>
      </trkpt>
      <trkpt lat="43.75966" lon="6.53192">
        <ele>1201.6</ele>
        <time>2017-10-29T11:35:25Z</time>
      </trkpt>
      <trkpt lat="43.75957" lon="6.53192">
        <ele>1203</ele>
        <time>2017-10-29T11:35:42Z</time>
      </trkpt>
      <trkpt lat="43.75948" lon="6.53189">
        <ele>1205.4</ele>
        <time>2017-10-29T11:36:03Z</time>
      </trkpt>
      <trkpt lat="43.75939" lon="6.53189">
        <ele>1208</ele>
        <time>2017-10-29T11:36:32Z</time>
      </trkpt>
      <trkpt lat="43.7593" lon="6.53185">
        <ele>1209.6</ele>
        <time>2017-10-29T11:38:51Z</time>
      </trkpt>
      <trkpt lat="43.75921" lon="6.53187">
        <ele>1211</ele>
        <time>2017-10-29T11:39:05Z</time>
      </trkpt>
      <trkpt lat="43.75913" lon="6.53193">
        <ele>1212.9</ele>
        <time>2017-10-29T11:39:19Z</time>
      </trkpt>
      <trkpt lat="43.75906" lon="6.53202">
        <ele>1214.7</ele>
        <time>2017-10-29T11:39:33Z</time>
      </trkpt>
      <trkpt lat="43.75899" lon="6.53211">
        <ele>1215.9</ele>
        <time>2017-10-29T11:39:47Z</time>
      </trkpt>
      <trkpt lat="43.75891" lon="6.53217">
        <ele>1217.5</ele>
        <time>2017-10-29T11:40:03Z</time>
      </trkpt>
      <trkpt lat="43.75882" lon="6.53222">
        <ele>1218.6</ele>
        <time>2017-10-29T11:40:21Z</time>
      </trkpt>
      <trkpt lat="43.75877" lon="6.53234">
        <ele>1219.9</ele>
        <time>2017-10-29T11:40:36Z</time>
      </trkpt>
      <trkpt lat="43.75877" lon="6.53247">
        <ele>1220</ele>
        <time>2017-10-29T11:40:48Z</time>
      </trkpt>
      <trkpt lat="43.75872" lon="6.53258">
        <ele>1221</ele>
        <time>2017-10-29T11:41:05Z</time>
      </trkpt>
      <trkpt lat="43.75865" lon="6.53264">
        <ele>1222.7</ele>
        <time>2017-10-29T11:41:24Z</time>
      </trkpt>
      <trkpt lat="43.75856" lon="6.53261">
        <ele>1224.7</ele>
        <time>2017-10-29T11:41:44Z</time>
      </trkpt>
      <trkpt lat="43.75847" lon="6.53258">
        <ele>1225.2</ele>
        <time>2017-10-29T11:41:57Z</time>
      </trkpt>
      <trkpt lat="43.75838" lon="6.53253">
        <ele>1225.8</ele>
        <time>2017-10-29T11:42:09Z</time>
      </trkpt>
      <trkpt lat="43.75829" lon="6.5325">
        <ele>1227.2</ele>
        <time>2017-10-29T11:42:26Z</time>
      </trkpt>
      <trkpt lat="43.75821" lon="6.53256">
        <ele>1227.6</ele>
        <time>2017-10-29T11:42:40Z</time>
      </trkpt>
      <trkpt lat="43.75812" lon="6.5326">
        <ele>1229.1</ele>
        <time>2017-10-29T11:42:57Z</time>
      </trkpt>
      <trkpt lat="43.75803" lon="6.5326">
        <ele>1229.8</ele>
        <time>2017-10-29T11:43:10Z</time>
      </trkpt>
      <trkpt lat="43.75795" lon="6.53263">
        <ele>1229.7</ele>
        <time>2017-10-29T11:43:22Z</time>
      </trkpt>
      <trkpt lat="43.75788" lon="6.53271">
        <ele>1231.2</ele>
        <time>2017-10-29T11:43:40Z</time>
      </trkpt>
      <trkpt lat="43.75779" lon="6.53277">
        <ele>1231.7</ele>
        <time>2017-10-29T11:43:59Z</time>
      </trkpt>
      <trkpt lat="43.7577" lon="6.5328">
        <ele>1232.4</ele>
        <time>2017-10-29T11:44:15Z</time>
      </trkpt>
      <trkpt lat="43.75767" lon="6.53292">
        <ele>1232.9</ele>
        <time>2017-10-29T11:44:32Z</time>
      </trkpt>
      <trkpt lat="43.75761" lon="6.53302">
        <ele>1233.9</ele>
        <time>2017-10-29T11:44:50Z</time>
      </trkpt>
      <trkpt lat="43.75755" lon="6.53312">
        <ele>1235.1</ele>
        <time>2017-10-29T11:45:08Z</time>
      </trkpt>
      <trkpt lat="43.75752" lon="6.53325">
        <ele>1236</ele>
        <time>2017-10-29T11:45:24Z</time>
      </trkpt>
      <trkpt lat="43.75754" lon="6.53337">
        <ele>1237.2</ele>
        <time>2017-10-29T11:45:39Z</time>
      </trkpt>
      <trkpt lat="43.75754" lon="6.5335">
        <ele>1239.2</ele>
        <time>2017-10-29T11:45:59Z</time>
      </trkpt>
      <trkpt lat="43.75758" lon="6.53362">
        <ele>1239.9</ele>
        <time>2017-10-29T11:46:15Z</time>
      </trkpt>
      <trkpt lat="43.75761" lon="6.53374">
        <ele>1241</ele>
        <time>2017-10-29T11:46:32Z</time>
      </trkpt>
      <trkpt lat="43.75761" lon="6.53387">
        <ele>1242.2</ele>
        <time>2017-10-29T11:46:51Z</time>
      </trkpt>
      <trkpt lat="43.75759" lon="6.534">
        <ele>1243.3</ele>
        <time>2017-10-29T11:47:11Z</time>
      </trkpt>
      <trkpt lat="43.75761" lon="6.53412">
        <ele>1244.1</ele>
        <time>2017-10-29T11:47:24Z</time>
      </trkpt>
      <trkpt lat="43.75762" lon="6.53425">
        <ele>1245.1</ele>
        <time>2017-10-29T11:47:45Z</time>
      </trkpt>
      <trkpt lat="43.75766" lon="6.53437">
        <ele>1245.8</ele>
        <time>2017-10-29T11:48:44Z</time>
      </trkpt>
      <trkpt lat="43.75766" lon="6.5345">
        <ele>1246.2</ele>
        <time>2017-10-29T11:48:57Z</time>
      </trkpt>
      <trkpt lat="43.75761" lon="6.5346">
        <ele>1247.9</ele>
        <time>2017-10-29T11:49:22Z</time>
      </trkpt>
      <trkpt lat="43.75756" lon="6.53472">
        <ele>1249</ele>
        <time>2017-10-29T11:49:35Z</time>
      </trkpt>
      <trkpt lat="43.75751" lon="6.53484">
        <ele>1250.7</ele>
        <time>2017-10-29T11:49:49Z</time>
      </trkpt>
      <trkpt lat="43.75749" lon="6.53497">
        <ele>1251.9</ele>
        <time>2017-10-29T11:50:08Z</time>
      </trkpt>
      <trkpt lat="43.75751" lon="6.53509">
        <ele>1253.5</ele>
        <time>2017-10-29T11:50:24Z</time>
      </trkpt>
      <trkpt lat="43.75745" lon="6.53519">
        <ele>1255.9</ele>
        <time>2017-10-29T11:50:45Z</time>
      </trkpt>
      <trkpt lat="43.75741" lon="6.53531">
        <ele>1257.9</ele>
        <time>2017-10-29T11:51:08Z</time>
      </trkpt>
      <trkpt lat="43.75739" lon="6.53544">
        <ele>1260.1</ele>
        <time>2017-10-29T11:51:28Z</time>
      </trkpt>
      <trkpt lat="43.75739" lon="6.53556">
        <ele>1261.9</ele>
        <time>2017-10-29T11:51:45Z</time>
      </trkpt>
      <trkpt lat="43.75736" lon="6.53569">
        <ele>1263.5</ele>
        <time>2017-10-29T11:52:09Z</time>
      </trkpt>
      <trkpt lat="43.75736" lon="6.53581">
        <ele>1264.4</ele>
        <time>2017-10-29T11:52:24Z</time>
      </trkpt>
      <trkpt lat="43.75735" lon="6.53594">
        <ele>1265.6</ele>
        <time>2017-10-29T11:52:47Z</time>
      </trkpt>
      <trkpt lat="43.75729" lon="6.53602">
        <ele>1267.8</ele>
        <time>2017-10-29T11:53:37Z</time>
      </trkpt>
      <trkpt lat="43.75736" lon="6.53611">
        <ele>1271.5</ele>
        <time>2017-10-29T12:02:09Z</time>
      </trkpt>
      <trkpt lat="43.7573" lon="6.53601">
        <ele>1272.9</ele>
        <time>2017-10-29T12:13:59Z</time>
      </trkpt>
      <trkpt lat="43.75737" lon="6.53609">
        <ele>1275.7</ele>
        <time>2017-10-29T12:40:32Z</time>
      </trkpt>
      <trkpt lat="43.7573" lon="6.536">
        <ele>1277.4</ele>
        <time>2017-10-29T12:48:56Z</time>
      </trkpt>
      <trkpt lat="43.75727" lon="6.53588">
        <ele>1277.4</ele>
        <time>2017-10-29T12:54:04Z</time>
      </trkpt>
      <trkpt lat="43.75718" lon="6.53585">
        <ele>1277.1</ele>
        <time>2017-10-29T12:54:22Z</time>
      </trkpt>
      <trkpt lat="43.7571" lon="6.5359">
        <ele>1276.7</ele>
        <time>2017-10-29T12:54:39Z</time>
      </trkpt>
      <trkpt lat="43.75701" lon="6.53595">
        <ele>1276.3</ele>
        <time>2017-10-29T12:54:54Z</time>
      </trkpt>
      <trkpt lat="43.75691" lon="6.53597">
        <ele>1275.3</ele>
        <time>2017-10-29T12:55:08Z</time>
      </trkpt>
      <trkpt lat="43.75683" lon="6.53602">
        <ele>1273.7</ele>
        <time>2017-10-29T12:55:23Z</time>
      </trkpt>
      <trkpt lat="43.75674" lon="6.53605">
        <ele>1272.7</ele>
        <time>2017-10-29T12:55:36Z</time>
      </trkpt>
      <trkpt lat="43.75665" lon="6.53608">
        <ele>1271.8</ele>
        <time>2017-10-29T12:56:00Z</time>
      </trkpt>
      <trkpt lat="43.75656" lon="6.53606">
        <ele>1271.2</ele>
        <time>2017-10-29T12:56:15Z</time>
      </trkpt>
      <trkpt lat="43.75647" lon="6.53604">
        <ele>1270.3</ele>
        <time>2017-10-29T12:56:30Z</time>
      </trkpt>
      <trkpt lat="43.75637" lon="6.53602">
        <ele>1269.5</ele>
        <time>2017-10-29T12:56:45Z</time>
      </trkpt>
      <trkpt lat="43.75628" lon="6.53602">
        <ele>1269</ele>
        <time>2017-10-29T12:56:58Z</time>
      </trkpt>
      <trkpt lat="43.75618" lon="6.53602">
        <ele>1268.2</ele>
        <time>2017-10-29T12:57:10Z</time>
      </trkpt>
      <trkpt lat="43.7561" lon="6.53605">
        <ele>1265.9</ele>
        <time>2017-10-29T12:57:36Z</time>
      </trkpt>
      <trkpt lat="43.756" lon="6.53608">
        <ele>1265.4</ele>
        <time>2017-10-29T12:58:05Z</time>
      </trkpt>
      <trkpt lat="43.75591" lon="6.5361">
        <ele>1264.8</ele>
        <time>2017-10-29T12:58:15Z</time>
      </trkpt>
      <trkpt lat="43.75582" lon="6.53613">
        <ele>1263.5</ele>
        <time>2017-10-29T12:58:26Z</time>
      </trkpt>
      <trkpt lat="43.75573" lon="6.53614">
        <ele>1261.6</ele>
        <time>2017-10-29T12:58:40Z</time>
      </trkpt>
      <trkpt lat="43.75565" lon="6.53621">
        <ele>1260.1</ele>
        <time>2017-10-29T12:58:53Z</time>
      </trkpt>
      <trkpt lat="43.75554" lon="6.53619">
        <ele>1258.7</ele>
        <time>2017-10-29T12:59:04Z</time>
      </trkpt>
      <trkpt lat="43.75545" lon="6.53623">
        <ele>1257.4</ele>
        <time>2017-10-29T12:59:14Z</time>
      </trkpt>
      <trkpt lat="43.75535" lon="6.53623">
        <ele>1256</ele>
        <time>2017-10-29T12:59:24Z</time>
      </trkpt>
      <trkpt lat="43.75528" lon="6.53631">
        <ele>1255</ele>
        <time>2017-10-29T12:59:35Z</time>
      </trkpt>
      <trkpt lat="43.75522" lon="6.53642">
        <ele>1254.5</ele>
        <time>2017-10-29T12:59:42Z</time>
      </trkpt>
      <trkpt lat="43.75513" lon="6.53644">
        <ele>1253.2</ele>
        <time>2017-10-29T12:59:55Z</time>
      </trkpt>
      <trkpt lat="43.75504" lon="6.53647">
        <ele>1251.9</ele>
        <time>2017-10-29T13:00:06Z</time>
      </trkpt>
      <trkpt lat="43.75495" lon="6.53651">
        <ele>1250</ele>
        <time>2017-10-29T13:00:17Z</time>
      </trkpt>
      <trkpt lat="43.75487" lon="6.53657">
        <ele>1248.5</ele>
        <time>2017-10-29T13:00:26Z</time>
      </trkpt>
      <trkpt lat="43.75478" lon="6.53659">
        <ele>1246.5</ele>
        <time>2017-10-29T13:00:41Z</time>
      </trkpt>
      <trkpt lat="43.75469" lon="6.53663">
        <ele>1245.1</ele>
        <time>2017-10-29T13:00:50Z</time>
      </trkpt>
      <trkpt lat="43.75461" lon="6.53669">
        <ele>1242.6</ele>
        <time>2017-10-29T13:01:04Z</time>
      </trkpt>
      <trkpt lat="43.75452" lon="6.53673">
        <ele>1240.1</ele>
        <time>2017-10-29T13:01:16Z</time>
      </trkpt>
      <trkpt lat="43.75443" lon="6.53672">
        <ele>1237.8</ele>
        <time>2017-10-29T13:01:28Z</time>
      </trkpt>
      <trkpt lat="43.75434" lon="6.53674">
        <ele>1235.7</ele>
        <time>2017-10-29T13:01:39Z</time>
      </trkpt>
      <trkpt lat="43.75424" lon="6.53676">
        <ele>1234.1</ele>
        <time>2017-10-29T13:01:49Z</time>
      </trkpt>
      <trkpt lat="43.75415" lon="6.53676">
        <ele>1232.4</ele>
        <time>2017-10-29T13:01:58Z</time>
      </trkpt>
      <trkpt lat="43.75407" lon="6.53682">
        <ele>1230.7</ele>
        <time>2017-10-29T13:02:06Z</time>
      </trkpt>
      <trkpt lat="43.75399" lon="6.53688">
        <ele>1228.7</ele>
        <time>2017-10-29T13:02:19Z</time>
      </trkpt>
      <trkpt lat="43.7539" lon="6.53692">
        <ele>1227.5</ele>
        <time>2017-10-29T13:02:31Z</time>
      </trkpt>
      <trkpt lat="43.7538" lon="6.53694">
        <ele>1226.2</ele>
        <time>2017-10-29T13:02:45Z</time>
      </trkpt>
      <trkpt lat="43.75371" lon="6.53695">
        <ele>1224.6</ele>
        <time>2017-10-29T13:02:57Z</time>
      </trkpt>
      <trkpt lat="43.75362" lon="6.53695">
        <ele>1221.3</ele>
        <time>2017-10-29T13:03:14Z</time>
      </trkpt>
      <trkpt lat="43.75352" lon="6.53695">
        <ele>1218.9</ele>
        <time>2017-10-29T13:03:25Z</time>
      </trkpt>
      <trkpt lat="43.75344" lon="6.53698">
        <ele>1217.3</ele>
        <time>2017-10-29T13:03:34Z</time>
      </trkpt>
      <trkpt lat="43.75341" lon="6.53711">
        <ele>1214.6</ele>
        <time>2017-10-29T13:03:51Z</time>
      </trkpt>
      <trkpt lat="43.75345" lon="6.53722">
        <ele>1212.6</ele>
        <time>2017-10-29T13:04:05Z</time>
      </trkpt>
      <trkpt lat="43.75354" lon="6.53727">
        <ele>1211.1</ele>
        <time>2017-10-29T13:04:16Z</time>
      </trkpt>
      <trkpt lat="43.75363" lon="6.53731">
        <ele>1210.1</ele>
        <time>2017-10-29T13:04:26Z</time>
      </trkpt>
      <trkpt lat="43.75368" lon="6.53742">
        <ele>1208.2</ele>
        <time>2017-10-29T13:04:43Z</time>
      </trkpt>
      <trkpt lat="43.75376" lon="6.53748">
        <ele>1206.8</ele>
        <time>2017-10-29T13:04:54Z</time>
      </trkpt>
      <trkpt lat="43.75382" lon="6.53759">
        <ele>1204.4</ele>
        <time>2017-10-29T13:05:11Z</time>
      </trkpt>
      <trkpt lat="43.75385" lon="6.5377">
        <ele>1201.4</ele>
        <time>2017-10-29T13:05:32Z</time>
      </trkpt>
      <trkpt lat="43.75376" lon="6.53772">
        <ele>1195.8</ele>
        <time>2017-10-29T13:06:08Z</time>
      </trkpt>
      <trkpt lat="43.7538" lon="6.53785">
        <ele>1193.4</ele>
        <time>2017-10-29T13:06:25Z</time>
      </trkpt>
      <trkpt lat="43.75383" lon="6.53797">
        <ele>1191.1</ele>
        <time>2017-10-29T13:07:08Z</time>
      </trkpt>
      <trkpt lat="43.75389" lon="6.53807">
        <ele>1189.4</ele>
        <time>2017-10-29T13:08:02Z</time>
      </trkpt>
      <trkpt lat="43.75397" lon="6.538">
        <ele>1188.6</ele>
        <time>2017-10-29T13:08:14Z</time>
      </trkpt>
      <trkpt lat="43.75406" lon="6.53803">
        <ele>1186.7</ele>
        <time>2017-10-29T13:08:38Z</time>
      </trkpt>
      <trkpt lat="43.75414" lon="6.53809">
        <ele>1182.3</ele>
        <time>2017-10-29T13:09:12Z</time>
      </trkpt>
      <trkpt lat="43.75421" lon="6.53818">
        <ele>1179.7</ele>
        <time>2017-10-29T13:09:33Z</time>
      </trkpt>
      <trkpt lat="43.75429" lon="6.53825">
        <ele>1177.5</ele>
        <time>2017-10-29T13:09:51Z</time>
      </trkpt>
      <trkpt lat="43.75435" lon="6.53835">
        <ele>1175.9</ele>
        <time>2017-10-29T13:10:06Z</time>
      </trkpt>
      <trkpt lat="43.75439" lon="6.53846">
        <ele>1174.7</ele>
        <time>2017-10-29T13:10:18Z</time>
      </trkpt>
      <trkpt lat="43.75446" lon="6.53855">
        <ele>1174.1</ele>
        <time>2017-10-29T13:10:29Z</time>
      </trkpt>
      <trkpt lat="43.75448" lon="6.53868">
        <ele>1173.9</ele>
        <time>2017-10-29T13:10:44Z</time>
      </trkpt>
      <trkpt lat="43.7545" lon="6.53881">
        <ele>1174.4</ele>
        <time>2017-10-29T13:10:56Z</time>
      </trkpt>
      <trkpt lat="43.75452" lon="6.53893">
        <ele>1174.9</ele>
        <time>2017-10-29T13:11:06Z</time>
      </trkpt>
      <trkpt lat="43.75457" lon="6.53904">
        <ele>1175.3</ele>
        <time>2017-10-29T13:11:16Z</time>
      </trkpt>
      <trkpt lat="43.7546" lon="6.53917">
        <ele>1175.7</ele>
        <time>2017-10-29T13:11:27Z</time>
      </trkpt>
      <trkpt lat="43.75457" lon="6.53929">
        <ele>1177</ele>
        <time>2017-10-29T13:11:42Z</time>
      </trkpt>
      <trkpt lat="43.75456" lon="6.53942">
        <ele>1178.2</ele>
        <time>2017-10-29T13:11:59Z</time>
      </trkpt>
      <trkpt lat="43.75453" lon="6.53954">
        <ele>1179.2</ele>
        <time>2017-10-29T13:12:12Z</time>
      </trkpt>
      <trkpt lat="43.75454" lon="6.53966">
        <ele>1179.9</ele>
        <time>2017-10-29T13:12:22Z</time>
      </trkpt>
      <trkpt lat="43.75451" lon="6.53979">
        <ele>1180</ele>
        <time>2017-10-29T13:12:38Z</time>
      </trkpt>
      <trkpt lat="43.75455" lon="6.5399">
        <ele>1178.6</ele>
        <time>2017-10-29T13:12:54Z</time>
      </trkpt>
      <trkpt lat="43.7546" lon="6.54002">
        <ele>1177.1</ele>
        <time>2017-10-29T13:13:07Z</time>
      </trkpt>
      <trkpt lat="43.75464" lon="6.54014">
        <ele>1174.9</ele>
        <time>2017-10-29T13:13:24Z</time>
      </trkpt>
      <trkpt lat="43.75469" lon="6.54025">
        <ele>1173.2</ele>
        <time>2017-10-29T13:13:43Z</time>
      </trkpt>
      <trkpt lat="43.75471" lon="6.54037">
        <ele>1171.5</ele>
        <time>2017-10-29T13:13:56Z</time>
      </trkpt>
      <trkpt lat="43.75473" lon="6.5405">
        <ele>1169.3</ele>
        <time>2017-10-29T13:14:11Z</time>
      </trkpt>
      <trkpt lat="43.75475" lon="6.54062">
        <ele>1167.5</ele>
        <time>2017-10-29T13:14:26Z</time>
      </trkpt>
      <trkpt lat="43.75475" lon="6.54076">
        <ele>1165.5</ele>
        <time>2017-10-29T13:14:43Z</time>
      </trkpt>
      <trkpt lat="43.75476" lon="6.54088">
        <ele>1162.8</ele>
        <time>2017-10-29T13:15:00Z</time>
      </trkpt>
      <trkpt lat="43.75477" lon="6.54101">
        <ele>1160.8</ele>
        <time>2017-10-29T13:15:14Z</time>
      </trkpt>
      <trkpt lat="43.75479" lon="6.54114">
        <ele>1159</ele>
        <time>2017-10-29T13:15:28Z</time>
      </trkpt>
      <trkpt lat="43.75477" lon="6.54127">
        <ele>1156.9</ele>
        <time>2017-10-29T13:15:42Z</time>
      </trkpt>
      <trkpt lat="43.75476" lon="6.54139">
        <ele>1154.2</ele>
        <time>2017-10-29T13:15:57Z</time>
      </trkpt>
      <trkpt lat="43.75471" lon="6.54149">
        <ele>1151.9</ele>
        <time>2017-10-29T13:16:09Z</time>
      </trkpt>
      <trkpt lat="43.75468" lon="6.54162">
        <ele>1149.8</ele>
        <time>2017-10-29T13:16:24Z</time>
      </trkpt>
      <trkpt lat="43.75467" lon="6.54174">
        <ele>1147.7</ele>
        <time>2017-10-29T13:16:37Z</time>
      </trkpt>
      <trkpt lat="43.75465" lon="6.54187">
        <ele>1144.9</ele>
        <time>2017-10-29T13:16:54Z</time>
      </trkpt>
      <trkpt lat="43.75459" lon="6.54197">
        <ele>1141</ele>
        <time>2017-10-29T13:17:21Z</time>
      </trkpt>
      <trkpt lat="43.75452" lon="6.54205">
        <ele>1139</ele>
        <time>2017-10-29T13:17:35Z</time>
      </trkpt>
      <trkpt lat="43.75449" lon="6.54218">
        <ele>1135.7</ele>
        <time>2017-10-29T13:17:53Z</time>
      </trkpt>
      <trkpt lat="43.75448" lon="6.5423">
        <ele>1132.7</ele>
        <time>2017-10-29T13:18:11Z</time>
      </trkpt>
      <trkpt lat="43.75454" lon="6.5424">
        <ele>1131.5</ele>
        <time>2017-10-29T13:18:22Z</time>
      </trkpt>
      <trkpt lat="43.75447" lon="6.54249">
        <ele>1127.9</ele>
        <time>2017-10-29T13:18:46Z</time>
      </trkpt>
      <trkpt lat="43.75439" lon="6.54243">
        <ele>1124.9</ele>
        <time>2017-10-29T13:19:13Z</time>
      </trkpt>
      <trkpt lat="43.75431" lon="6.54249">
        <ele>1121.9</ele>
        <time>2017-10-29T13:19:37Z</time>
      </trkpt>
      <trkpt lat="43.75432" lon="6.54261">
        <ele>1119</ele>
        <time>2017-10-29T13:19:54Z</time>
      </trkpt>
      <trkpt lat="43.75431" lon="6.54274">
        <ele>1115.8</ele>
        <time>2017-10-29T13:20:13Z</time>
      </trkpt>
      <trkpt lat="43.75435" lon="6.54286">
        <ele>1113.4</ele>
        <time>2017-10-29T13:20:27Z</time>
      </trkpt>
      <trkpt lat="43.7544" lon="6.54297">
        <ele>1110.7</ele>
        <time>2017-10-29T13:20:43Z</time>
      </trkpt>
      <trkpt lat="43.75443" lon="6.54308">
        <ele>1108.1</ele>
        <time>2017-10-29T13:20:59Z</time>
      </trkpt>
      <trkpt lat="43.75446" lon="6.5432">
        <ele>1106.5</ele>
        <time>2017-10-29T13:21:09Z</time>
      </trkpt>
      <trkpt lat="43.75451" lon="6.54331">
        <ele>1104.3</ele>
        <time>2017-10-29T13:21:24Z</time>
      </trkpt>
      <trkpt lat="43.75456" lon="6.54342">
        <ele>1102.4</ele>
        <time>2017-10-29T13:21:38Z</time>
      </trkpt>
      <trkpt lat="43.75456" lon="6.54355">
        <ele>1100.5</ele>
        <time>2017-10-29T13:21:54Z</time>
      </trkpt>
      <trkpt lat="43.75458" lon="6.54368">
        <ele>1099.2</ele>
        <time>2017-10-29T13:22:06Z</time>
      </trkpt>
      <trkpt lat="43.7546" lon="6.54381">
        <ele>1097.9</ele>
        <time>2017-10-29T13:22:17Z</time>
      </trkpt>
      <trkpt lat="43.7546" lon="6.54394">
        <ele>1097.2</ele>
        <time>2017-10-29T13:22:26Z</time>
      </trkpt>
      <trkpt lat="43.75464" lon="6.54405">
        <ele>1095.8</ele>
        <time>2017-10-29T13:23:00Z</time>
      </trkpt>
      <trkpt lat="43.75473" lon="6.5441">
        <ele>1096.4</ele>
        <time>2017-10-29T13:23:41Z</time>
      </trkpt>
      <trkpt lat="43.75475" lon="6.54422">
        <ele>1096.3</ele>
        <time>2017-10-29T13:23:51Z</time>
      </trkpt>
      <trkpt lat="43.75482" lon="6.54432">
        <ele>1096.3</ele>
        <time>2017-10-29T13:24:01Z</time>
      </trkpt>
      <trkpt lat="43.75489" lon="6.54439">
        <ele>1095.9</ele>
        <time>2017-10-29T13:24:13Z</time>
      </trkpt>
      <trkpt lat="43.75499" lon="6.54444">
        <ele>1095.7</ele>
        <time>2017-10-29T13:24:24Z</time>
      </trkpt>
      <trkpt lat="43.75505" lon="6.54454">
        <ele>1095.6</ele>
        <time>2017-10-29T13:24:32Z</time>
      </trkpt>
      <trkpt lat="43.75511" lon="6.54463">
        <ele>1095.4</ele>
        <time>2017-10-29T13:24:41Z</time>
      </trkpt>
      <trkpt lat="43.75518" lon="6.54471">
        <ele>1095.2</ele>
        <time>2017-10-29T13:24:50Z</time>
      </trkpt>
      <trkpt lat="43.75525" lon="6.54481">
        <ele>1095.1</ele>
        <time>2017-10-29T13:24:59Z</time>
      </trkpt>
      <trkpt lat="43.75532" lon="6.5449">
        <ele>1095</ele>
        <time>2017-10-29T13:25:09Z</time>
      </trkpt>
      <trkpt lat="43.75536" lon="6.54501">
        <ele>1095.1</ele>
        <time>2017-10-29T13:25:18Z</time>
      </trkpt>
      <trkpt lat="43.75543" lon="6.5451">
        <ele>1095.2</ele>
        <time>2017-10-29T13:25:27Z</time>
      </trkpt>
      <trkpt lat="43.75552" lon="6.54517">
        <ele>1095.1</ele>
        <time>2017-10-29T13:25:37Z</time>
      </trkpt>
      <trkpt lat="43.75559" lon="6.54525">
        <ele>1094.7</ele>
        <time>2017-10-29T13:25:46Z</time>
      </trkpt>
      <trkpt lat="43.75566" lon="6.54534">
        <ele>1094.4</ele>
        <time>2017-10-29T13:25:57Z</time>
      </trkpt>
      <trkpt lat="43.75573" lon="6.54543">
        <ele>1094.2</ele>
        <time>2017-10-29T13:26:11Z</time>
      </trkpt>
      <trkpt lat="43.75582" lon="6.54546">
        <ele>1094.2</ele>
        <time>2017-10-29T13:26:27Z</time>
      </trkpt>
      <trkpt lat="43.75591" lon="6.54549">
        <ele>1094.1</ele>
        <time>2017-10-29T13:26:41Z</time>
      </trkpt>
      <trkpt lat="43.75599" lon="6.54558">
        <ele>1093.7</ele>
        <time>2017-10-29T13:26:50Z</time>
      </trkpt>
      <trkpt lat="43.75604" lon="6.5457">
        <ele>1093.7</ele>
        <time>2017-10-29T13:26:59Z</time>
      </trkpt>
      <trkpt lat="43.75611" lon="6.54579">
        <ele>1093.8</ele>
        <time>2017-10-29T13:27:09Z</time>
      </trkpt>
      <trkpt lat="43.75619" lon="6.54587">
        <ele>1094</ele>
        <time>2017-10-29T13:27:18Z</time>
      </trkpt>
      <trkpt lat="43.75626" lon="6.54597">
        <ele>1093.8</ele>
        <time>2017-10-29T13:27:27Z</time>
      </trkpt>
      <trkpt lat="43.75632" lon="6.54608">
        <ele>1093.7</ele>
        <time>2017-10-29T13:27:36Z</time>
      </trkpt>
      <trkpt lat="43.75639" lon="6.54617">
        <ele>1093.4</ele>
        <time>2017-10-29T13:27:45Z</time>
      </trkpt>
      <trkpt lat="43.75645" lon="6.54627">
        <ele>1093.2</ele>
        <time>2017-10-29T13:27:53Z</time>
      </trkpt>
      <trkpt lat="43.75654" lon="6.54634">
        <ele>1093</ele>
        <time>2017-10-29T13:28:01Z</time>
      </trkpt>
      <trkpt lat="43.75662" lon="6.54643">
        <ele>1093</ele>
        <time>2017-10-29T13:28:13Z</time>
      </trkpt>
      <trkpt lat="43.75668" lon="6.54653">
        <ele>1093.3</ele>
        <time>2017-10-29T13:28:20Z</time>
      </trkpt>
      <trkpt lat="43.75676" lon="6.5466">
        <ele>1093.1</ele>
        <time>2017-10-29T13:28:29Z</time>
      </trkpt>
      <trkpt lat="43.75683" lon="6.54667">
        <ele>1093.2</ele>
        <time>2017-10-29T13:28:36Z</time>
      </trkpt>
      <trkpt lat="43.75692" lon="6.54673">
        <ele>1093.2</ele>
        <time>2017-10-29T13:28:43Z</time>
      </trkpt>
      <trkpt lat="43.757" lon="6.54678">
        <ele>1093.3</ele>
        <time>2017-10-29T13:28:52Z</time>
      </trkpt>
      <trkpt lat="43.75707" lon="6.54686">
        <ele>1093.6</ele>
        <time>2017-10-29T13:29:00Z</time>
      </trkpt>
      <trkpt lat="43.75715" lon="6.54691">
        <ele>1094.3</ele>
        <time>2017-10-29T13:30:36Z</time>
      </trkpt>
      <trkpt lat="43.75724" lon="6.54696">
        <ele>1094.3</ele>
        <time>2017-10-29T13:30:46Z</time>
      </trkpt>
      <trkpt lat="43.75731" lon="6.54707">
        <ele>1094.4</ele>
        <time>2017-10-29T13:30:56Z</time>
      </trkpt>
      <trkpt lat="43.75734" lon="6.54719">
        <ele>1094.6</ele>
        <time>2017-10-29T13:31:07Z</time>
      </trkpt>
      <trkpt lat="43.75738" lon="6.54732">
        <ele>1094.6</ele>
        <time>2017-10-29T13:31:19Z</time>
      </trkpt>
      <trkpt lat="43.75738" lon="6.54745">
        <ele>1093.6</ele>
        <time>2017-10-29T13:31:29Z</time>
      </trkpt>
      <trkpt lat="43.75741" lon="6.54758">
        <ele>1093.3</ele>
        <time>2017-10-29T13:31:41Z</time>
      </trkpt>
      <trkpt lat="43.75741" lon="6.54771">
        <ele>1093.7</ele>
        <time>2017-10-29T13:31:50Z</time>
      </trkpt>
      <trkpt lat="43.75744" lon="6.54783">
        <ele>1093.4</ele>
        <time>2017-10-29T13:31:57Z</time>
      </trkpt>
      <trkpt lat="43.75746" lon="6.54796">
        <ele>1093.5</ele>
        <time>2017-10-29T13:32:06Z</time>
      </trkpt>
      <trkpt lat="43.75748" lon="6.54809">
        <ele>1093.9</ele>
        <time>2017-10-29T13:32:14Z</time>
      </trkpt>
      <trkpt lat="43.75752" lon="6.54822">
        <ele>1093.9</ele>
        <time>2017-10-29T13:32:23Z</time>
      </trkpt>
      <trkpt lat="43.75758" lon="6.54832">
        <ele>1094.1</ele>
        <time>2017-10-29T13:32:30Z</time>
      </trkpt>
      <trkpt lat="43.75762" lon="6.54845">
        <ele>1094</ele>
        <time>2017-10-29T13:32:39Z</time>
      </trkpt>
      <trkpt lat="43.75766" lon="6.54856">
        <ele>1094.4</ele>
        <time>2017-10-29T13:32:49Z</time>
      </trkpt>
      <trkpt lat="43.7577" lon="6.54868">
        <ele>1094.4</ele>
        <time>2017-10-29T13:32:58Z</time>
      </trkpt>
      <trkpt lat="43.75774" lon="6.5488">
        <ele>1094.6</ele>
        <time>2017-10-29T13:33:10Z</time>
      </trkpt>
      <trkpt lat="43.75777" lon="6.54892">
        <ele>1094.4</ele>
        <time>2017-10-29T13:33:19Z</time>
      </trkpt>
      <trkpt lat="43.75779" lon="6.54906">
        <ele>1093.9</ele>
        <time>2017-10-29T13:33:28Z</time>
      </trkpt>
      <trkpt lat="43.75782" lon="6.54918">
        <ele>1093.7</ele>
        <time>2017-10-29T13:33:34Z</time>
      </trkpt>
      <trkpt lat="43.75786" lon="6.5493">
        <ele>1092.9</ele>
        <time>2017-10-29T13:33:43Z</time>
      </trkpt>
      <trkpt lat="43.75793" lon="6.5494">
        <ele>1092.1</ele>
        <time>2017-10-29T13:33:51Z</time>
      </trkpt>
      <trkpt lat="43.75796" lon="6.54952">
        <ele>1091.3</ele>
        <time>2017-10-29T13:33:58Z</time>
      </trkpt>
      <trkpt lat="43.758" lon="6.54963">
        <ele>1089.7</ele>
        <time>2017-10-29T13:34:07Z</time>
      </trkpt>
      <trkpt lat="43.75806" lon="6.54974">
        <ele>1088.6</ele>
        <time>2017-10-29T13:34:16Z</time>
      </trkpt>
      <trkpt lat="43.75811" lon="6.54986">
        <ele>1087.5</ele>
        <time>2017-10-29T13:34:25Z</time>
      </trkpt>
      <trkpt lat="43.75817" lon="6.54995">
        <ele>1084.9</ele>
        <time>2017-10-29T13:34:39Z</time>
      </trkpt>
      <trkpt lat="43.75822" lon="6.55005">
        <ele>1083.5</ele>
        <time>2017-10-29T13:34:49Z</time>
      </trkpt>
      <trkpt lat="43.75824" lon="6.5502">
        <ele>1082.4</ele>
        <time>2017-10-29T13:34:57Z</time>
      </trkpt>
      <trkpt lat="43.75831" lon="6.5503">
        <ele>1080.3</ele>
        <time>2017-10-29T13:35:08Z</time>
      </trkpt>
      <trkpt lat="43.7584" lon="6.55035">
        <ele>1078.6</ele>
        <time>2017-10-29T13:35:17Z</time>
      </trkpt>
      <trkpt lat="43.75848" lon="6.55042">
        <ele>1077.4</ele>
        <time>2017-10-29T13:35:25Z</time>
      </trkpt>
      <trkpt lat="43.75854" lon="6.55051">
        <ele>1076.3</ele>
        <time>2017-10-29T13:35:33Z</time>
      </trkpt>
      <trkpt lat="43.75863" lon="6.55058">
        <ele>1075</ele>
        <time>2017-10-29T13:35:42Z</time>
      </trkpt>
      <trkpt lat="43.75871" lon="6.55064">
        <ele>1074</ele>
        <time>2017-10-29T13:35:51Z</time>
      </trkpt>
      <trkpt lat="43.75881" lon="6.55066">
        <ele>1072.7</ele>
        <time>2017-10-29T13:36:00Z</time>
      </trkpt>
      <trkpt lat="43.75882" lon="6.55079">
        <ele>1072</ele>
        <time>2017-10-29T13:36:10Z</time>
      </trkpt>
      <trkpt lat="43.75884" lon="6.55092">
        <ele>1070.9</ele>
        <time>2017-10-29T13:36:21Z</time>
      </trkpt>
      <trkpt lat="43.75888" lon="6.55103">
        <ele>1070.1</ele>
        <time>2017-10-29T13:36:30Z</time>
      </trkpt>
      <trkpt lat="43.75891" lon="6.55115">
        <ele>1069</ele>
        <time>2017-10-29T13:36:39Z</time>
      </trkpt>
      <trkpt lat="43.75895" lon="6.55126">
        <ele>1067.7</ele>
        <time>2017-10-29T13:36:50Z</time>
      </trkpt>
      <trkpt lat="43.75899" lon="6.55139">
        <ele>1066.7</ele>
        <time>2017-10-29T13:36:59Z</time>
      </trkpt>
      <trkpt lat="43.759" lon="6.55152">
        <ele>1064.2</ele>
        <time>2017-10-29T13:37:15Z</time>
      </trkpt>
      <trkpt lat="43.75901" lon="6.55167">
        <ele>1062.3</ele>
        <time>2017-10-29T13:37:27Z</time>
      </trkpt>
      <trkpt lat="43.759" lon="6.55179">
        <ele>1061.4</ele>
        <time>2017-10-29T13:37:34Z</time>
      </trkpt>
      <trkpt lat="43.759" lon="6.55194">
        <ele>1060</ele>
        <time>2017-10-29T13:37:43Z</time>
      </trkpt>
      <trkpt lat="43.75902" lon="6.55207">
        <ele>1058.9</ele>
        <time>2017-10-29T13:37:53Z</time>
      </trkpt>
      <trkpt lat="43.75906" lon="6.5522">
        <ele>1057.5</ele>
        <time>2017-10-29T13:38:05Z</time>
      </trkpt>
      <trkpt lat="43.75906" lon="6.55233">
        <ele>1056.1</ele>
        <time>2017-10-29T13:38:15Z</time>
      </trkpt>
      <trkpt lat="43.75906" lon="6.55246">
        <ele>1054.2</ele>
        <time>2017-10-29T13:38:25Z</time>
      </trkpt>
      <trkpt lat="43.75906" lon="6.55259">
        <ele>1052.8</ele>
        <time>2017-10-29T13:38:34Z</time>
      </trkpt>
      <trkpt lat="43.75903" lon="6.55272">
        <ele>1050.8</ele>
        <time>2017-10-29T13:38:48Z</time>
      </trkpt>
      <trkpt lat="43.75904" lon="6.55284">
        <ele>1050</ele>
        <time>2017-10-29T13:38:57Z</time>
      </trkpt>
      <trkpt lat="43.75901" lon="6.55296">
        <ele>1049.1</ele>
        <time>2017-10-29T13:39:07Z</time>
      </trkpt>
      <trkpt lat="43.75901" lon="6.55309">
        <ele>1047.6</ele>
        <time>2017-10-29T13:39:24Z</time>
      </trkpt>
      <trkpt lat="43.75897" lon="6.5532">
        <ele>1047.2</ele>
        <time>2017-10-29T13:39:54Z</time>
      </trkpt>
      <trkpt lat="43.75895" lon="6.55332">
        <ele>1046.8</ele>
        <time>2017-10-29T13:40:04Z</time>
      </trkpt>
      <trkpt lat="43.75894" lon="6.55346">
        <ele>1046.6</ele>
        <time>2017-10-29T13:40:16Z</time>
      </trkpt>
      <trkpt lat="43.75894" lon="6.55359">
        <ele>1046</ele>
        <time>2017-10-29T13:40:27Z</time>
      </trkpt>
      <trkpt lat="43.75894" lon="6.55373">
        <ele>1045.1</ele>
        <time>2017-10-29T13:40:39Z</time>
      </trkpt>
      <trkpt lat="43.75891" lon="6.55386">
        <ele>1044.6</ele>
        <time>2017-10-29T13:40:47Z</time>
      </trkpt>
      <trkpt lat="43.7589" lon="6.55399">
        <ele>1044.6</ele>
        <time>2017-10-29T13:40:55Z</time>
      </trkpt>
      <trkpt lat="43.75888" lon="6.55412">
        <ele>1044.1</ele>
        <time>2017-10-29T13:41:06Z</time>
      </trkpt>
      <trkpt lat="43.75886" lon="6.55426">
        <ele>1043.4</ele>
        <time>2017-10-29T13:41:16Z</time>
      </trkpt>
      <trkpt lat="43.75883" lon="6.55438">
        <ele>1042.9</ele>
        <time>2017-10-29T13:41:27Z</time>
      </trkpt>
      <trkpt lat="43.75885" lon="6.55452">
        <ele>1042.2</ele>
        <time>2017-10-29T13:41:34Z</time>
      </trkpt>
      <trkpt lat="43.75888" lon="6.55464">
        <ele>1040.9</ele>
        <time>2017-10-29T13:41:46Z</time>
      </trkpt>
      <trkpt lat="43.7589" lon="6.55476">
        <ele>1039.6</ele>
        <time>2017-10-29T13:42:05Z</time>
      </trkpt>
      <trkpt lat="43.75884" lon="6.55487">
        <ele>1037.7</ele>
        <time>2017-10-29T13:42:17Z</time>
      </trkpt>
      <trkpt lat="43.75878" lon="6.55497">
        <ele>1035.8</ele>
        <time>2017-10-29T13:42:47Z</time>
      </trkpt>
      <trkpt lat="43.75882" lon="6.55508">
        <ele>1035.2</ele>
        <time>2017-10-29T13:43:23Z</time>
      </trkpt>
      <trkpt lat="43.75887" lon="6.55519">
        <ele>1033.5</ele>
        <time>2017-10-29T13:43:36Z</time>
      </trkpt>
      <trkpt lat="43.75892" lon="6.5553">
        <ele>1032.4</ele>
        <time>2017-10-29T13:43:46Z</time>
      </trkpt>
      <trkpt lat="43.75896" lon="6.55542">
        <ele>1030.6</ele>
        <time>2017-10-29T13:43:58Z</time>
      </trkpt>
      <trkpt lat="43.759" lon="6.55553">
        <ele>1028.6</ele>
        <time>2017-10-29T13:44:08Z</time>
      </trkpt>
      <trkpt lat="43.75904" lon="6.55564">
        <ele>1026.6</ele>
        <time>2017-10-29T13:44:18Z</time>
      </trkpt>
      <trkpt lat="43.75909" lon="6.55576">
        <ele>1024.6</ele>
        <time>2017-10-29T13:44:28Z</time>
      </trkpt>
      <trkpt lat="43.75912" lon="6.55588">
        <ele>1022.7</ele>
        <time>2017-10-29T13:44:39Z</time>
      </trkpt>
      <trkpt lat="43.75916" lon="6.55601">
        <ele>1020.5</ele>
        <time>2017-10-29T13:44:50Z</time>
      </trkpt>
      <trkpt lat="43.75919" lon="6.55612">
        <ele>1018.2</ele>
        <time>2017-10-29T13:45:01Z</time>
      </trkpt>
      <trkpt lat="43.75921" lon="6.55625">
        <ele>1016.1</ele>
        <time>2017-10-29T13:45:12Z</time>
      </trkpt>
      <trkpt lat="43.75925" lon="6.55638">
        <ele>1014.1</ele>
        <time>2017-10-29T13:45:23Z</time>
      </trkpt>
      <trkpt lat="43.75928" lon="6.5565">
        <ele>1012.6</ele>
        <time>2017-10-29T13:45:33Z</time>
      </trkpt>
      <trkpt lat="43.7593" lon="6.55662">
        <ele>1011.8</ele>
        <time>2017-10-29T13:45:43Z</time>
      </trkpt>
      <trkpt lat="43.75932" lon="6.55676">
        <ele>1010.3</ele>
        <time>2017-10-29T13:45:53Z</time>
      </trkpt>
      <trkpt lat="43.75935" lon="6.55689">
        <ele>1008.4</ele>
        <time>2017-10-29T13:46:05Z</time>
      </trkpt>
      <trkpt lat="43.75935" lon="6.55702">
        <ele>1006.5</ele>
        <time>2017-10-29T13:46:14Z</time>
      </trkpt>
      <trkpt lat="43.75935" lon="6.55715">
        <ele>1004.8</ele>
        <time>2017-10-29T13:46:23Z</time>
      </trkpt>
      <trkpt lat="43.75934" lon="6.55728">
        <ele>1002.7</ele>
        <time>2017-10-29T13:46:35Z</time>
      </trkpt>
      <trkpt lat="43.75932" lon="6.55741">
        <ele>1000.9</ele>
        <time>2017-10-29T13:46:45Z</time>
      </trkpt>
      <trkpt lat="43.75933" lon="6.55754">
        <ele>999.4</ele>
        <time>2017-10-29T13:46:54Z</time>
      </trkpt>
      <trkpt lat="43.75937" lon="6.55765">
        <ele>998.2</ele>
        <time>2017-10-29T13:47:10Z</time>
      </trkpt>
      <trkpt lat="43.75941" lon="6.55776">
        <ele>997.4</ele>
        <time>2017-10-29T13:47:22Z</time>
      </trkpt>
      <trkpt lat="43.75947" lon="6.55787">
        <ele>996.5</ele>
        <time>2017-10-29T13:47:32Z</time>
      </trkpt>
      <trkpt lat="43.75952" lon="6.55797">
        <ele>995.3</ele>
        <time>2017-10-29T13:47:42Z</time>
      </trkpt>
      <trkpt lat="43.75956" lon="6.5581">
        <ele>994.2</ele>
        <time>2017-10-29T13:47:54Z</time>
      </trkpt>
      <trkpt lat="43.75959" lon="6.55822">
        <ele>992.5</ele>
        <time>2017-10-29T13:48:05Z</time>
      </trkpt>
      <trkpt lat="43.75963" lon="6.55834">
        <ele>990.6</ele>
        <time>2017-10-29T13:48:22Z</time>
      </trkpt>
      <trkpt lat="43.7597" lon="6.55841">
        <ele>990</ele>
        <time>2017-10-29T13:48:30Z</time>
      </trkpt>
      <trkpt lat="43.75975" lon="6.55831">
        <ele>988.9</ele>
        <time>2017-10-29T13:48:38Z</time>
      </trkpt>
      <trkpt lat="43.75981" lon="6.55821">
        <ele>987.9</ele>
        <time>2017-10-29T13:48:44Z</time>
      </trkpt>
      <trkpt lat="43.75988" lon="6.55811">
        <ele>986.3</ele>
        <time>2017-10-29T13:48:55Z</time>
      </trkpt>
      <trkpt lat="43.75992" lon="6.55799">
        <ele>985.7</ele>
        <time>2017-10-29T13:49:05Z</time>
      </trkpt>
      <trkpt lat="43.75997" lon="6.55787">
        <ele>985.8</ele>
        <time>2017-10-29T13:49:14Z</time>
      </trkpt>
      <trkpt lat="43.76002" lon="6.55776">
        <ele>986.2</ele>
        <time>2017-10-29T13:49:24Z</time>
      </trkpt>
      <trkpt lat="43.76009" lon="6.55769">
        <ele>986.5</ele>
        <time>2017-10-29T13:49:33Z</time>
      </trkpt>
      <trkpt lat="43.76018" lon="6.55774">
        <ele>986</ele>
        <time>2017-10-29T13:49:42Z</time>
      </trkpt>
      <trkpt lat="43.76026" lon="6.55782">
        <ele>985.6</ele>
        <time>2017-10-29T13:49:49Z</time>
      </trkpt>
      <trkpt lat="43.76034" lon="6.55788">
        <ele>985.3</ele>
        <time>2017-10-29T13:49:59Z</time>
      </trkpt>
      <trkpt lat="43.76042" lon="6.55795">
        <ele>984.2</ele>
        <time>2017-10-29T13:50:08Z</time>
      </trkpt>
      <trkpt lat="43.7605" lon="6.55805">
        <ele>983.7</ele>
        <time>2017-10-29T13:50:18Z</time>
      </trkpt>
      <trkpt lat="43.76056" lon="6.55814">
        <ele>983.4</ele>
        <time>2017-10-29T13:50:23Z</time>
      </trkpt>
      <trkpt lat="43.76064" lon="6.55823">
        <ele>982.8</ele>
        <time>2017-10-29T13:50:31Z</time>
      </trkpt>
      <trkpt lat="43.76071" lon="6.55833">
        <ele>982.1</ele>
        <time>2017-10-29T13:50:39Z</time>
      </trkpt>
      <trkpt lat="43.76077" lon="6.55843">
        <ele>981.1</ele>
        <time>2017-10-29T13:50:47Z</time>
      </trkpt>
      <trkpt lat="43.76084" lon="6.55853">
        <ele>979.9</ele>
        <time>2017-10-29T13:50:55Z</time>
      </trkpt>
      <trkpt lat="43.76089" lon="6.55863">
        <ele>978.9</ele>
        <time>2017-10-29T13:51:03Z</time>
      </trkpt>
      <trkpt lat="43.76099" lon="6.55867">
        <ele>978.4</ele>
        <time>2017-10-29T13:51:10Z</time>
      </trkpt>
      <trkpt lat="43.76108" lon="6.55873">
        <ele>977.7</ele>
        <time>2017-10-29T13:51:19Z</time>
      </trkpt>
      <trkpt lat="43.76116" lon="6.55881">
        <ele>977.6</ele>
        <time>2017-10-29T13:51:29Z</time>
      </trkpt>
      <trkpt lat="43.76126" lon="6.55883">
        <ele>978</ele>
        <time>2017-10-29T13:51:37Z</time>
      </trkpt>
      <trkpt lat="43.76131" lon="6.55894">
        <ele>978</ele>
        <time>2017-10-29T13:51:47Z</time>
      </trkpt>
      <trkpt lat="43.76127" lon="6.55906">
        <ele>978.7</ele>
        <time>2017-10-29T13:51:56Z</time>
      </trkpt>
      <trkpt lat="43.76119" lon="6.55913">
        <ele>978.9</ele>
        <time>2017-10-29T13:52:04Z</time>
      </trkpt>
      <trkpt lat="43.76114" lon="6.55924">
        <ele>979.3</ele>
        <time>2017-10-29T13:52:13Z</time>
      </trkpt>
      <trkpt lat="43.7611" lon="6.55936">
        <ele>980</ele>
        <time>2017-10-29T13:52:22Z</time>
      </trkpt>
      <trkpt lat="43.76111" lon="6.55949">
        <ele>980.2</ele>
        <time>2017-10-29T13:52:33Z</time>
      </trkpt>
      <trkpt lat="43.7611" lon="6.55962">
        <ele>979.8</ele>
        <time>2017-10-29T13:52:42Z</time>
      </trkpt>
      <trkpt lat="43.76116" lon="6.55972">
        <ele>978.8</ele>
        <time>2017-10-29T13:52:52Z</time>
      </trkpt>
      <trkpt lat="43.76114" lon="6.55985">
        <ele>977.9</ele>
        <time>2017-10-29T13:53:03Z</time>
      </trkpt>
      <trkpt lat="43.76109" lon="6.55996">
        <ele>977.3</ele>
        <time>2017-10-29T13:53:16Z</time>
      </trkpt>
      <trkpt lat="43.76107" lon="6.5601">
        <ele>975.5</ele>
        <time>2017-10-29T13:53:36Z</time>
      </trkpt>
      <trkpt lat="43.76107" lon="6.56023">
        <ele>974.4</ele>
        <time>2017-10-29T13:53:46Z</time>
      </trkpt>
      <trkpt lat="43.76107" lon="6.56036">
        <ele>973.3</ele>
        <time>2017-10-29T13:53:55Z</time>
      </trkpt>
      <trkpt lat="43.76109" lon="6.56049">
        <ele>972.1</ele>
        <time>2017-10-29T13:54:04Z</time>
      </trkpt>
      <trkpt lat="43.76116" lon="6.56058">
        <ele>969.9</ele>
        <time>2017-10-29T13:54:34Z</time>
      </trkpt>
      <trkpt lat="43.76121" lon="6.56069">
        <ele>969.5</ele>
        <time>2017-10-29T13:54:44Z</time>
      </trkpt>
      <trkpt lat="43.76128" lon="6.56078">
        <ele>968.7</ele>
        <time>2017-10-29T13:54:54Z</time>
      </trkpt>
      <trkpt lat="43.76136" lon="6.56085">
        <ele>968.3</ele>
        <time>2017-10-29T13:55:04Z</time>
      </trkpt>
      <trkpt lat="43.76146" lon="6.56088">
        <ele>967.7</ele>
        <time>2017-10-29T13:55:13Z</time>
      </trkpt>
      <trkpt lat="43.76148" lon="6.56083">
        <ele>968.4</ele>
        <time>2017-10-29T14:01:09Z</time>
      </trkpt>
    </trkseg>
  </trk>
</gpx>